<?xml version="1.0" encoding="UTF-8" standalone="no" ?>
<gpx xmlns="http://www.topografix.com/GPX/1/1" xmlns:xsi="http://www.w3.org/2001/XMLSchema-instance" xsi:schemaLocation="http://www.topografix.com/GPX/1/1 http://www.topografix.com/GPX/1/1/gpx.xsd" version="1.1" creator="VisuGPX - https://www.visugpx.com">
  <metadata>
    <name>Stevenson VTT CAF Chalon Mijavols/Lou Serre de la Can</name>
    <desc><![CDATA[vendredi 13 mai 2014]]></desc>
  </metadata>
  <trk>
    <name><![CDATA[16-MAI-14 16:15:14]]></name>
    <trkseg>
      <trkpt lat="44.31553" lon="3.6962">
        <ele>934.54</ele>
        <time>2014-05-16T06:23:55Z</time>
      </trkpt>
      <trkpt lat="44.31582" lon="3.69571">
        <ele>945.11</ele>
        <time>2014-05-16T06:25:16Z</time>
      </trkpt>
      <trkpt lat="44.31625" lon="3.69551">
        <ele>948.96</ele>
        <time>2014-05-16T06:25:50Z</time>
      </trkpt>
      <trkpt lat="44.3167" lon="3.69549">
        <ele>953.28</ele>
        <time>2014-05-16T06:26:21Z</time>
      </trkpt>
      <trkpt lat="44.31716" lon="3.69569">
        <ele>958.57</ele>
        <time>2014-05-16T06:27:01Z</time>
      </trkpt>
      <trkpt lat="44.31747" lon="3.69615">
        <ele>963.86</ele>
        <time>2014-05-16T06:27:42Z</time>
      </trkpt>
      <trkpt lat="44.31768" lon="3.69671">
        <ele>968.67</ele>
        <time>2014-05-16T06:28:19Z</time>
      </trkpt>
      <trkpt lat="44.31788" lon="3.69728">
        <ele>970.11</ele>
        <time>2014-05-16T06:28:48Z</time>
      </trkpt>
      <trkpt lat="44.31805" lon="3.69731">
        <ele>975.88</ele>
        <time>2014-05-16T06:29:25Z</time>
      </trkpt>
      <trkpt lat="44.31767" lon="3.69735">
        <ele>977.8</ele>
        <time>2014-05-16T06:29:54Z</time>
      </trkpt>
      <trkpt lat="44.31741" lon="3.69682">
        <ele>980.2</ele>
        <time>2014-05-16T06:30:22Z</time>
      </trkpt>
      <trkpt lat="44.31704" lon="3.6965">
        <ele>983.57</ele>
        <time>2014-05-16T06:30:53Z</time>
      </trkpt>
      <trkpt lat="44.31735" lon="3.69673">
        <ele>982.12</ele>
        <time>2014-05-16T06:31:30Z</time>
      </trkpt>
      <trkpt lat="44.31764" lon="3.69726">
        <ele>977.8</ele>
        <time>2014-05-16T06:31:39Z</time>
      </trkpt>
      <trkpt lat="44.31799" lon="3.69735">
        <ele>975.88</ele>
        <time>2014-05-16T06:31:50Z</time>
      </trkpt>
      <trkpt lat="44.3184" lon="3.6971">
        <ele>974.43</ele>
        <time>2014-05-16T06:32:00Z</time>
      </trkpt>
      <trkpt lat="44.31865" lon="3.69741">
        <ele>978.28</ele>
        <time>2014-05-16T06:32:28Z</time>
      </trkpt>
      <trkpt lat="44.31858" lon="3.69805">
        <ele>983.57</ele>
        <time>2014-05-16T06:33:00Z</time>
      </trkpt>
      <trkpt lat="44.31866" lon="3.69867">
        <ele>986.45</ele>
        <time>2014-05-16T06:33:29Z</time>
      </trkpt>
      <trkpt lat="44.31876" lon="3.69929">
        <ele>988.85</ele>
        <time>2014-05-16T06:33:56Z</time>
      </trkpt>
      <trkpt lat="44.31894" lon="3.69987">
        <ele>991.26</ele>
        <time>2014-05-16T06:34:24Z</time>
      </trkpt>
      <trkpt lat="44.31923" lon="3.70039">
        <ele>993.66</ele>
        <time>2014-05-16T06:34:52Z</time>
      </trkpt>
      <trkpt lat="44.31942" lon="3.70099">
        <ele>997.99</ele>
        <time>2014-05-16T06:35:23Z</time>
      </trkpt>
      <trkpt lat="44.31965" lon="3.70075">
        <ele>1001.35</ele>
        <time>2014-05-16T06:35:55Z</time>
      </trkpt>
      <trkpt lat="44.31991" lon="3.70025">
        <ele>1005.2</ele>
        <time>2014-05-16T06:36:25Z</time>
      </trkpt>
      <trkpt lat="44.32032" lon="3.69987">
        <ele>1010.48</ele>
        <time>2014-05-16T06:37:01Z</time>
      </trkpt>
      <trkpt lat="44.32066" lon="3.69939">
        <ele>1014.81</ele>
        <time>2014-05-16T06:37:36Z</time>
      </trkpt>
      <trkpt lat="44.32106" lon="3.69893">
        <ele>1020.1</ele>
        <time>2014-05-16T06:38:16Z</time>
      </trkpt>
      <trkpt lat="44.3215" lon="3.69859">
        <ele>1027.31</ele>
        <time>2014-05-16T06:38:56Z</time>
      </trkpt>
      <trkpt lat="44.3219" lon="3.69822">
        <ele>1032.11</ele>
        <time>2014-05-16T06:39:35Z</time>
      </trkpt>
      <trkpt lat="44.32231" lon="3.69777">
        <ele>1038.36</ele>
        <time>2014-05-16T06:40:17Z</time>
      </trkpt>
      <trkpt lat="44.32251" lon="3.69719">
        <ele>1042.21</ele>
        <time>2014-05-16T06:40:47Z</time>
      </trkpt>
      <trkpt lat="44.32281" lon="3.69669">
        <ele>1046.05</ele>
        <time>2014-05-16T06:41:13Z</time>
      </trkpt>
      <trkpt lat="44.3232" lon="3.69634">
        <ele>1049.42</ele>
        <time>2014-05-16T06:41:40Z</time>
      </trkpt>
      <trkpt lat="44.32356" lon="3.69594">
        <ele>1052.3</ele>
        <time>2014-05-16T06:42:09Z</time>
      </trkpt>
      <trkpt lat="44.32379" lon="3.69536">
        <ele>1054.7</ele>
        <time>2014-05-16T06:42:33Z</time>
      </trkpt>
      <trkpt lat="44.32389" lon="3.69473">
        <ele>1055.67</ele>
        <time>2014-05-16T06:42:47Z</time>
      </trkpt>
      <trkpt lat="44.32374" lon="3.69411">
        <ele>1056.63</ele>
        <time>2014-05-16T06:43:02Z</time>
      </trkpt>
      <trkpt lat="44.32396" lon="3.69368">
        <ele>1058.55</ele>
        <time>2014-05-16T06:43:18Z</time>
      </trkpt>
      <trkpt lat="44.32424" lon="3.69313">
        <ele>1059.03</ele>
        <time>2014-05-16T06:43:33Z</time>
      </trkpt>
      <trkpt lat="44.3243" lon="3.69247">
        <ele>1060.47</ele>
        <time>2014-05-16T06:43:49Z</time>
      </trkpt>
      <trkpt lat="44.32452" lon="3.69192">
        <ele>1063.84</ele>
        <time>2014-05-16T06:44:11Z</time>
      </trkpt>
      <trkpt lat="44.32472" lon="3.69135">
        <ele>1066.72</ele>
        <time>2014-05-16T06:44:35Z</time>
      </trkpt>
      <trkpt lat="44.32482" lon="3.6907">
        <ele>1070.57</ele>
        <time>2014-05-16T06:45:00Z</time>
      </trkpt>
      <trkpt lat="44.32472" lon="3.69006">
        <ele>1073.45</ele>
        <time>2014-05-16T06:45:21Z</time>
      </trkpt>
      <trkpt lat="44.32464" lon="3.68942">
        <ele>1074.89</ele>
        <time>2014-05-16T06:45:39Z</time>
      </trkpt>
      <trkpt lat="44.32453" lon="3.68881">
        <ele>1076.81</ele>
        <time>2014-05-16T06:45:58Z</time>
      </trkpt>
      <trkpt lat="44.3246" lon="3.68815">
        <ele>1078.74</ele>
        <time>2014-05-16T06:46:15Z</time>
      </trkpt>
      <trkpt lat="44.32472" lon="3.68753">
        <ele>1079.7</ele>
        <time>2014-05-16T06:46:29Z</time>
      </trkpt>
      <trkpt lat="44.32486" lon="3.68689">
        <ele>1081.14</ele>
        <time>2014-05-16T06:46:46Z</time>
      </trkpt>
      <trkpt lat="44.32506" lon="3.68631">
        <ele>1081.62</ele>
        <time>2014-05-16T06:46:59Z</time>
      </trkpt>
      <trkpt lat="44.32535" lon="3.68582">
        <ele>1082.1</ele>
        <time>2014-05-16T06:47:14Z</time>
      </trkpt>
      <trkpt lat="44.32552" lon="3.68532">
        <ele>1079.7</ele>
        <time>2014-05-16T06:54:36Z</time>
      </trkpt>
      <trkpt lat="44.32567" lon="3.68467">
        <ele>1078.74</ele>
        <time>2014-05-16T06:54:50Z</time>
      </trkpt>
      <trkpt lat="44.3258" lon="3.68404">
        <ele>1077.78</ele>
        <time>2014-05-16T06:55:01Z</time>
      </trkpt>
      <trkpt lat="44.32597" lon="3.68345">
        <ele>1076.81</ele>
        <time>2014-05-16T06:55:11Z</time>
      </trkpt>
      <trkpt lat="44.32616" lon="3.68285">
        <ele>1075.37</ele>
        <time>2014-05-16T06:55:20Z</time>
      </trkpt>
      <trkpt lat="44.32624" lon="3.68224">
        <ele>1073.93</ele>
        <time>2014-05-16T06:55:28Z</time>
      </trkpt>
      <trkpt lat="44.32625" lon="3.68158">
        <ele>1072.97</ele>
        <time>2014-05-16T06:55:36Z</time>
      </trkpt>
      <trkpt lat="44.32624" lon="3.68092">
        <ele>1071.53</ele>
        <time>2014-05-16T06:55:44Z</time>
      </trkpt>
      <trkpt lat="44.32624" lon="3.68029">
        <ele>1070.57</ele>
        <time>2014-05-16T06:55:52Z</time>
      </trkpt>
      <trkpt lat="44.32624" lon="3.67962">
        <ele>1069.6</ele>
        <time>2014-05-16T06:56:00Z</time>
      </trkpt>
      <trkpt lat="44.32618" lon="3.67896">
        <ele>1068.16</ele>
        <time>2014-05-16T06:56:08Z</time>
      </trkpt>
      <trkpt lat="44.32631" lon="3.67832">
        <ele>1067.2</ele>
        <time>2014-05-16T06:56:16Z</time>
      </trkpt>
      <trkpt lat="44.32645" lon="3.67764">
        <ele>1065.76</ele>
        <time>2014-05-16T06:56:24Z</time>
      </trkpt>
      <trkpt lat="44.32658" lon="3.67696">
        <ele>1063.84</ele>
        <time>2014-05-16T06:56:32Z</time>
      </trkpt>
      <trkpt lat="44.32661" lon="3.67626">
        <ele>1062.39</ele>
        <time>2014-05-16T06:56:40Z</time>
      </trkpt>
      <trkpt lat="44.32664" lon="3.67554">
        <ele>1061.43</ele>
        <time>2014-05-16T06:56:48Z</time>
      </trkpt>
      <trkpt lat="44.32652" lon="3.67491">
        <ele>1059.99</ele>
        <time>2014-05-16T06:56:55Z</time>
      </trkpt>
      <trkpt lat="44.32631" lon="3.67429">
        <ele>1058.55</ele>
        <time>2014-05-16T06:57:02Z</time>
      </trkpt>
      <trkpt lat="44.32603" lon="3.67379">
        <ele>1057.59</ele>
        <time>2014-05-16T06:57:09Z</time>
      </trkpt>
      <trkpt lat="44.32572" lon="3.67334">
        <ele>1056.15</ele>
        <time>2014-05-16T06:57:16Z</time>
      </trkpt>
      <trkpt lat="44.32533" lon="3.67291">
        <ele>1054.7</ele>
        <time>2014-05-16T06:57:24Z</time>
      </trkpt>
      <trkpt lat="44.32506" lon="3.67237">
        <ele>1053.74</ele>
        <time>2014-05-16T06:57:32Z</time>
      </trkpt>
      <trkpt lat="44.32484" lon="3.67176">
        <ele>1052.3</ele>
        <time>2014-05-16T06:57:40Z</time>
      </trkpt>
      <trkpt lat="44.32489" lon="3.67112">
        <ele>1050.86</ele>
        <time>2014-05-16T06:57:48Z</time>
      </trkpt>
      <trkpt lat="44.32495" lon="3.67049">
        <ele>1049.42</ele>
        <time>2014-05-16T06:57:58Z</time>
      </trkpt>
      <trkpt lat="44.32466" lon="3.67002">
        <ele>1047.97</ele>
        <time>2014-05-16T06:58:39Z</time>
      </trkpt>
      <trkpt lat="44.32461" lon="3.66936">
        <ele>1046.53</ele>
        <time>2014-05-16T06:58:48Z</time>
      </trkpt>
      <trkpt lat="44.32474" lon="3.6687">
        <ele>1046.05</ele>
        <time>2014-05-16T06:58:58Z</time>
      </trkpt>
      <trkpt lat="44.32484" lon="3.66801">
        <ele>1045.57</ele>
        <time>2014-05-16T06:59:08Z</time>
      </trkpt>
      <trkpt lat="44.32486" lon="3.66735">
        <ele>1043.65</ele>
        <time>2014-05-16T06:59:17Z</time>
      </trkpt>
      <trkpt lat="44.32505" lon="3.66673">
        <ele>1042.21</ele>
        <time>2014-05-16T06:59:29Z</time>
      </trkpt>
      <trkpt lat="44.32529" lon="3.66614">
        <ele>1041.25</ele>
        <time>2014-05-16T06:59:39Z</time>
      </trkpt>
      <trkpt lat="44.32563" lon="3.66554">
        <ele>1040.28</ele>
        <time>2014-05-16T06:59:48Z</time>
      </trkpt>
      <trkpt lat="44.32591" lon="3.66498">
        <ele>1039.32</ele>
        <time>2014-05-16T06:59:56Z</time>
      </trkpt>
      <trkpt lat="44.32626" lon="3.66445">
        <ele>1037.88</ele>
        <time>2014-05-16T07:00:04Z</time>
      </trkpt>
      <trkpt lat="44.32654" lon="3.66384">
        <ele>1036.44</ele>
        <time>2014-05-16T07:00:12Z</time>
      </trkpt>
      <trkpt lat="44.32696" lon="3.6634">
        <ele>1035.48</ele>
        <time>2014-05-16T07:00:21Z</time>
      </trkpt>
      <trkpt lat="44.32748" lon="3.66337">
        <ele>1032.11</ele>
        <time>2014-05-16T07:00:29Z</time>
      </trkpt>
      <trkpt lat="44.32794" lon="3.66296">
        <ele>1030.67</ele>
        <time>2014-05-16T07:00:37Z</time>
      </trkpt>
      <trkpt lat="44.32811" lon="3.66232">
        <ele>1028.75</ele>
        <time>2014-05-16T07:00:45Z</time>
      </trkpt>
      <trkpt lat="44.32798" lon="3.66169">
        <ele>1028.27</ele>
        <time>2014-05-16T07:00:53Z</time>
      </trkpt>
      <trkpt lat="44.32801" lon="3.66103">
        <ele>1029.23</ele>
        <time>2014-05-16T07:01:02Z</time>
      </trkpt>
      <trkpt lat="44.32833" lon="3.66048">
        <ele>1028.27</ele>
        <time>2014-05-16T07:01:12Z</time>
      </trkpt>
      <trkpt lat="44.32859" lon="3.65987">
        <ele>1027.79</ele>
        <time>2014-05-16T07:01:21Z</time>
      </trkpt>
      <trkpt lat="44.32887" lon="3.65925">
        <ele>1026.83</ele>
        <time>2014-05-16T07:01:29Z</time>
      </trkpt>
      <trkpt lat="44.32898" lon="3.65862">
        <ele>1026.34</ele>
        <time>2014-05-16T07:01:37Z</time>
      </trkpt>
      <trkpt lat="44.32907" lon="3.65799">
        <ele>1024.9</ele>
        <time>2014-05-16T07:01:45Z</time>
      </trkpt>
      <trkpt lat="44.32924" lon="3.65739">
        <ele>1023.46</ele>
        <time>2014-05-16T07:01:53Z</time>
      </trkpt>
      <trkpt lat="44.32932" lon="3.65672">
        <ele>1022.02</ele>
        <time>2014-05-16T07:02:01Z</time>
      </trkpt>
      <trkpt lat="44.32911" lon="3.65608">
        <ele>1020.58</ele>
        <time>2014-05-16T07:02:09Z</time>
      </trkpt>
      <trkpt lat="44.32881" lon="3.65558">
        <ele>1019.13</ele>
        <time>2014-05-16T07:02:17Z</time>
      </trkpt>
      <trkpt lat="44.32862" lon="3.65494">
        <ele>1016.73</ele>
        <time>2014-05-16T07:02:25Z</time>
      </trkpt>
      <trkpt lat="44.32845" lon="3.65427">
        <ele>1012.89</ele>
        <time>2014-05-16T07:02:32Z</time>
      </trkpt>
      <trkpt lat="44.32835" lon="3.65357">
        <ele>1009.04</ele>
        <time>2014-05-16T07:02:39Z</time>
      </trkpt>
      <trkpt lat="44.32868" lon="3.65311">
        <ele>1006.64</ele>
        <time>2014-05-16T07:02:46Z</time>
      </trkpt>
      <trkpt lat="44.32907" lon="3.65278">
        <ele>1003.27</ele>
        <time>2014-05-16T07:02:52Z</time>
      </trkpt>
      <trkpt lat="44.32949" lon="3.65238">
        <ele>1000.87</ele>
        <time>2014-05-16T07:02:58Z</time>
      </trkpt>
      <trkpt lat="44.3298" lon="3.6519">
        <ele>997.51</ele>
        <time>2014-05-16T07:03:03Z</time>
      </trkpt>
      <trkpt lat="44.32994" lon="3.65129">
        <ele>995.1</ele>
        <time>2014-05-16T07:03:09Z</time>
      </trkpt>
      <trkpt lat="44.32979" lon="3.65058">
        <ele>990.78</ele>
        <time>2014-05-16T07:03:15Z</time>
      </trkpt>
      <trkpt lat="44.32941" lon="3.65018">
        <ele>985.49</ele>
        <time>2014-05-16T07:03:20Z</time>
      </trkpt>
      <trkpt lat="44.32904" lon="3.64977">
        <ele>982.12</ele>
        <time>2014-05-16T07:03:25Z</time>
      </trkpt>
      <trkpt lat="44.32871" lon="3.64923">
        <ele>978.28</ele>
        <time>2014-05-16T07:03:31Z</time>
      </trkpt>
      <trkpt lat="44.32863" lon="3.64854">
        <ele>974.43</ele>
        <time>2014-05-16T07:03:37Z</time>
      </trkpt>
      <trkpt lat="44.32868" lon="3.6478">
        <ele>972.03</ele>
        <time>2014-05-16T07:03:43Z</time>
      </trkpt>
      <trkpt lat="44.32891" lon="3.64713">
        <ele>968.67</ele>
        <time>2014-05-16T07:03:49Z</time>
      </trkpt>
      <trkpt lat="44.32925" lon="3.64671">
        <ele>966.74</ele>
        <time>2014-05-16T07:03:54Z</time>
      </trkpt>
      <trkpt lat="44.32959" lon="3.64628">
        <ele>963.86</ele>
        <time>2014-05-16T07:03:59Z</time>
      </trkpt>
      <trkpt lat="44.32982" lon="3.64572">
        <ele>961.94</ele>
        <time>2014-05-16T07:04:04Z</time>
      </trkpt>
      <trkpt lat="44.32987" lon="3.645">
        <ele>957.61</ele>
        <time>2014-05-16T07:04:09Z</time>
      </trkpt>
      <trkpt lat="44.32979" lon="3.64424">
        <ele>953.77</ele>
        <time>2014-05-16T07:04:14Z</time>
      </trkpt>
      <trkpt lat="44.32962" lon="3.6435">
        <ele>950.4</ele>
        <time>2014-05-16T07:04:19Z</time>
      </trkpt>
      <trkpt lat="44.32939" lon="3.64287">
        <ele>947.52</ele>
        <time>2014-05-16T07:04:24Z</time>
      </trkpt>
      <trkpt lat="44.32914" lon="3.64225">
        <ele>944.15</ele>
        <time>2014-05-16T07:04:31Z</time>
      </trkpt>
      <trkpt lat="44.32902" lon="3.64157">
        <ele>939.83</ele>
        <time>2014-05-16T07:04:37Z</time>
      </trkpt>
      <trkpt lat="44.32907" lon="3.64091">
        <ele>937.42</ele>
        <time>2014-05-16T07:04:42Z</time>
      </trkpt>
      <trkpt lat="44.32908" lon="3.6402">
        <ele>933.1</ele>
        <time>2014-05-16T07:04:47Z</time>
      </trkpt>
      <trkpt lat="44.3291" lon="3.63945">
        <ele>930.21</ele>
        <time>2014-05-16T07:04:52Z</time>
      </trkpt>
      <trkpt lat="44.32913" lon="3.6387">
        <ele>925.41</ele>
        <time>2014-05-16T07:04:57Z</time>
      </trkpt>
      <trkpt lat="44.32922" lon="3.638">
        <ele>921.56</ele>
        <time>2014-05-16T07:05:02Z</time>
      </trkpt>
      <trkpt lat="44.32938" lon="3.63737">
        <ele>919.64</ele>
        <time>2014-05-16T07:05:07Z</time>
      </trkpt>
      <trkpt lat="44.32964" lon="3.63681">
        <ele>915.31</ele>
        <time>2014-05-16T07:05:12Z</time>
      </trkpt>
      <trkpt lat="44.32959" lon="3.63621">
        <ele>910.51</ele>
        <time>2014-05-16T07:05:19Z</time>
      </trkpt>
      <trkpt lat="44.32914" lon="3.63599">
        <ele>907.14</ele>
        <time>2014-05-16T07:05:27Z</time>
      </trkpt>
      <trkpt lat="44.32889" lon="3.63547">
        <ele>903.78</ele>
        <time>2014-05-16T07:06:29Z</time>
      </trkpt>
      <trkpt lat="44.32869" lon="3.63484">
        <ele>899.93</ele>
        <time>2014-05-16T07:06:36Z</time>
      </trkpt>
      <trkpt lat="44.32878" lon="3.63411">
        <ele>896.09</ele>
        <time>2014-05-16T07:06:42Z</time>
      </trkpt>
      <trkpt lat="44.3289" lon="3.63344">
        <ele>893.68</ele>
        <time>2014-05-16T07:06:47Z</time>
      </trkpt>
      <trkpt lat="44.32911" lon="3.63278">
        <ele>888.88</ele>
        <time>2014-05-16T07:06:53Z</time>
      </trkpt>
      <trkpt lat="44.32945" lon="3.63222">
        <ele>884.55</ele>
        <time>2014-05-16T07:06:59Z</time>
      </trkpt>
      <trkpt lat="44.32967" lon="3.63159">
        <ele>881.67</ele>
        <time>2014-05-16T07:07:05Z</time>
      </trkpt>
      <trkpt lat="44.32981" lon="3.63093">
        <ele>879.74</ele>
        <time>2014-05-16T07:07:11Z</time>
      </trkpt>
      <trkpt lat="44.32998" lon="3.63033">
        <ele>877.82</ele>
        <time>2014-05-16T07:07:17Z</time>
      </trkpt>
      <trkpt lat="44.33037" lon="3.62991">
        <ele>875.42</ele>
        <time>2014-05-16T07:07:23Z</time>
      </trkpt>
      <trkpt lat="44.33082" lon="3.62983">
        <ele>873.5</ele>
        <time>2014-05-16T07:07:28Z</time>
      </trkpt>
      <trkpt lat="44.33124" lon="3.62961">
        <ele>870.61</ele>
        <time>2014-05-16T07:07:34Z</time>
      </trkpt>
      <trkpt lat="44.3313" lon="3.62896">
        <ele>868.21</ele>
        <time>2014-05-16T07:07:41Z</time>
      </trkpt>
      <trkpt lat="44.33108" lon="3.62827">
        <ele>865.32</ele>
        <time>2014-05-16T07:07:48Z</time>
      </trkpt>
      <trkpt lat="44.33091" lon="3.62759">
        <ele>862.92</ele>
        <time>2014-05-16T07:07:54Z</time>
      </trkpt>
      <trkpt lat="44.33078" lon="3.6269">
        <ele>860.52</ele>
        <time>2014-05-16T07:08:00Z</time>
      </trkpt>
      <trkpt lat="44.33097" lon="3.62625">
        <ele>860.04</ele>
        <time>2014-05-16T07:08:07Z</time>
      </trkpt>
      <trkpt lat="44.33112" lon="3.62564">
        <ele>859.08</ele>
        <time>2014-05-16T07:08:14Z</time>
      </trkpt>
      <trkpt lat="44.3314" lon="3.62514">
        <ele>857.63</ele>
        <time>2014-05-16T07:08:21Z</time>
      </trkpt>
      <trkpt lat="44.3317" lon="3.6246">
        <ele>857.15</ele>
        <time>2014-05-16T07:08:29Z</time>
      </trkpt>
      <trkpt lat="44.33214" lon="3.62436">
        <ele>856.67</ele>
        <time>2014-05-16T07:08:39Z</time>
      </trkpt>
      <trkpt lat="44.33263" lon="3.6246">
        <ele>854.27</ele>
        <time>2014-05-16T07:08:47Z</time>
      </trkpt>
      <trkpt lat="44.33314" lon="3.62478">
        <ele>852.35</ele>
        <time>2014-05-16T07:08:55Z</time>
      </trkpt>
      <trkpt lat="44.33361" lon="3.62473">
        <ele>850.9</ele>
        <time>2014-05-16T07:09:02Z</time>
      </trkpt>
      <trkpt lat="44.33405" lon="3.62446">
        <ele>848.02</ele>
        <time>2014-05-16T07:09:09Z</time>
      </trkpt>
      <trkpt lat="44.33447" lon="3.62405">
        <ele>845.14</ele>
        <time>2014-05-16T07:09:16Z</time>
      </trkpt>
      <trkpt lat="44.33489" lon="3.62376">
        <ele>842.25</ele>
        <time>2014-05-16T07:09:23Z</time>
      </trkpt>
      <trkpt lat="44.33498" lon="3.62388">
        <ele>837.45</ele>
        <time>2014-05-16T07:09:35Z</time>
      </trkpt>
      <trkpt lat="44.33464" lon="3.62431">
        <ele>833.12</ele>
        <time>2014-05-16T07:09:45Z</time>
      </trkpt>
      <trkpt lat="44.33475" lon="3.62419">
        <ele>834.56</ele>
        <time>2014-05-16T07:11:05Z</time>
      </trkpt>
      <trkpt lat="44.33509" lon="3.62367">
        <ele>840.33</ele>
        <time>2014-05-16T07:12:05Z</time>
      </trkpt>
      <trkpt lat="44.33482" lon="3.62309">
        <ele>846.1</ele>
        <time>2014-05-16T07:18:26Z</time>
      </trkpt>
      <trkpt lat="44.33444" lon="3.62251">
        <ele>848.5</ele>
        <time>2014-05-16T07:18:48Z</time>
      </trkpt>
      <trkpt lat="44.3341" lon="3.622">
        <ele>849.94</ele>
        <time>2014-05-16T07:19:07Z</time>
      </trkpt>
      <trkpt lat="44.33373" lon="3.62158">
        <ele>852.83</ele>
        <time>2014-05-16T07:19:29Z</time>
      </trkpt>
      <trkpt lat="44.33337" lon="3.62116">
        <ele>856.19</ele>
        <time>2014-05-16T07:19:53Z</time>
      </trkpt>
      <trkpt lat="44.33306" lon="3.62063">
        <ele>859.56</ele>
        <time>2014-05-16T07:20:21Z</time>
      </trkpt>
      <trkpt lat="44.33276" lon="3.62011">
        <ele>864.84</ele>
        <time>2014-05-16T07:20:53Z</time>
      </trkpt>
      <trkpt lat="44.33294" lon="3.61971">
        <ele>864.84</ele>
        <time>2014-05-16T07:21:13Z</time>
      </trkpt>
      <trkpt lat="44.3333" lon="3.61932">
        <ele>862.44</ele>
        <time>2014-05-16T07:21:23Z</time>
      </trkpt>
      <trkpt lat="44.33366" lon="3.61884">
        <ele>858.59</ele>
        <time>2014-05-16T07:21:31Z</time>
      </trkpt>
      <trkpt lat="44.33389" lon="3.6183">
        <ele>855.71</ele>
        <time>2014-05-16T07:21:39Z</time>
      </trkpt>
      <trkpt lat="44.3339" lon="3.6176">
        <ele>853.31</ele>
        <time>2014-05-16T07:21:48Z</time>
      </trkpt>
      <trkpt lat="44.33401" lon="3.617">
        <ele>851.87</ele>
        <time>2014-05-16T07:21:56Z</time>
      </trkpt>
      <trkpt lat="44.33437" lon="3.61659">
        <ele>848.98</ele>
        <time>2014-05-16T07:22:03Z</time>
      </trkpt>
      <trkpt lat="44.3348" lon="3.61626">
        <ele>846.1</ele>
        <time>2014-05-16T07:22:09Z</time>
      </trkpt>
      <trkpt lat="44.33519" lon="3.61588">
        <ele>844.18</ele>
        <time>2014-05-16T07:22:15Z</time>
      </trkpt>
      <trkpt lat="44.33564" lon="3.61552">
        <ele>842.73</ele>
        <time>2014-05-16T07:22:22Z</time>
      </trkpt>
      <trkpt lat="44.33608" lon="3.6153">
        <ele>840.33</ele>
        <time>2014-05-16T07:22:28Z</time>
      </trkpt>
      <trkpt lat="44.33658" lon="3.6151">
        <ele>837.45</ele>
        <time>2014-05-16T07:22:34Z</time>
      </trkpt>
      <trkpt lat="44.33711" lon="3.615">
        <ele>834.56</ele>
        <time>2014-05-16T07:22:40Z</time>
      </trkpt>
      <trkpt lat="44.33757" lon="3.61506">
        <ele>831.2</ele>
        <time>2014-05-16T07:22:45Z</time>
      </trkpt>
      <trkpt lat="44.33806" lon="3.61517">
        <ele>830.24</ele>
        <time>2014-05-16T07:22:59Z</time>
      </trkpt>
      <trkpt lat="44.33788" lon="3.61472">
        <ele>834.56</ele>
        <time>2014-05-16T07:23:26Z</time>
      </trkpt>
      <trkpt lat="44.33752" lon="3.61426">
        <ele>839.85</ele>
        <time>2014-05-16T07:24:01Z</time>
      </trkpt>
      <trkpt lat="44.33717" lon="3.61373">
        <ele>844.66</ele>
        <time>2014-05-16T07:24:39Z</time>
      </trkpt>
      <trkpt lat="44.33675" lon="3.61321">
        <ele>849.94</ele>
        <time>2014-05-16T07:25:13Z</time>
      </trkpt>
      <trkpt lat="44.33624" lon="3.61304">
        <ele>853.79</ele>
        <time>2014-05-16T07:25:44Z</time>
      </trkpt>
      <trkpt lat="44.33574" lon="3.61298">
        <ele>858.59</ele>
        <time>2014-05-16T07:26:16Z</time>
      </trkpt>
      <trkpt lat="44.33524" lon="3.61292">
        <ele>863.88</ele>
        <time>2014-05-16T07:26:49Z</time>
      </trkpt>
      <trkpt lat="44.33472" lon="3.61298">
        <ele>869.65</ele>
        <time>2014-05-16T07:27:25Z</time>
      </trkpt>
      <trkpt lat="44.3342" lon="3.61305">
        <ele>873.98</ele>
        <time>2014-05-16T07:27:56Z</time>
      </trkpt>
      <trkpt lat="44.33369" lon="3.61305">
        <ele>878.3</ele>
        <time>2014-05-16T07:28:28Z</time>
      </trkpt>
      <trkpt lat="44.33319" lon="3.61306">
        <ele>883.59</ele>
        <time>2014-05-16T07:29:02Z</time>
      </trkpt>
      <trkpt lat="44.33265" lon="3.61314">
        <ele>888.4</ele>
        <time>2014-05-16T07:29:37Z</time>
      </trkpt>
      <trkpt lat="44.33219" lon="3.61326">
        <ele>892.24</ele>
        <time>2014-05-16T07:30:05Z</time>
      </trkpt>
      <trkpt lat="44.33193" lon="3.61273">
        <ele>892.24</ele>
        <time>2014-05-16T07:30:20Z</time>
      </trkpt>
      <trkpt lat="44.33165" lon="3.61217">
        <ele>892.72</ele>
        <time>2014-05-16T07:30:33Z</time>
      </trkpt>
      <trkpt lat="44.33138" lon="3.6118">
        <ele>891.76</ele>
        <time>2014-05-16T07:34:40Z</time>
      </trkpt>
      <trkpt lat="44.33128" lon="3.61115">
        <ele>886.47</ele>
        <time>2014-05-16T07:34:56Z</time>
      </trkpt>
      <trkpt lat="44.33116" lon="3.61046">
        <ele>883.11</ele>
        <time>2014-05-16T07:35:04Z</time>
      </trkpt>
      <trkpt lat="44.3309" lon="3.60986">
        <ele>875.42</ele>
        <time>2014-05-16T07:35:10Z</time>
      </trkpt>
      <trkpt lat="44.33045" lon="3.6094">
        <ele>871.09</ele>
        <time>2014-05-16T07:35:16Z</time>
      </trkpt>
      <trkpt lat="44.33011" lon="3.60898">
        <ele>868.21</ele>
        <time>2014-05-16T07:35:21Z</time>
      </trkpt>
      <trkpt lat="44.32976" lon="3.60852">
        <ele>865.32</ele>
        <time>2014-05-16T07:35:26Z</time>
      </trkpt>
      <trkpt lat="44.32953" lon="3.60796">
        <ele>864.36</ele>
        <time>2014-05-16T07:35:31Z</time>
      </trkpt>
      <trkpt lat="44.32919" lon="3.60744">
        <ele>861.48</ele>
        <time>2014-05-16T07:35:38Z</time>
      </trkpt>
      <trkpt lat="44.32895" lon="3.60686">
        <ele>858.11</ele>
        <time>2014-05-16T07:35:44Z</time>
      </trkpt>
      <trkpt lat="44.32882" lon="3.60615">
        <ele>853.31</ele>
        <time>2014-05-16T07:35:50Z</time>
      </trkpt>
      <trkpt lat="44.32874" lon="3.60542">
        <ele>846.1</ele>
        <time>2014-05-16T07:35:56Z</time>
      </trkpt>
      <trkpt lat="44.32881" lon="3.60479">
        <ele>840.33</ele>
        <time>2014-05-16T07:36:02Z</time>
      </trkpt>
      <trkpt lat="44.32896" lon="3.6041">
        <ele>834.08</ele>
        <time>2014-05-16T07:36:09Z</time>
      </trkpt>
      <trkpt lat="44.32916" lon="3.60347">
        <ele>828.31</ele>
        <time>2014-05-16T07:36:15Z</time>
      </trkpt>
      <trkpt lat="44.32949" lon="3.60291">
        <ele>821.58</ele>
        <time>2014-05-16T07:36:21Z</time>
      </trkpt>
      <trkpt lat="44.32982" lon="3.60247">
        <ele>814.37</ele>
        <time>2014-05-16T07:36:27Z</time>
      </trkpt>
      <trkpt lat="44.33" lon="3.60179">
        <ele>807.64</ele>
        <time>2014-05-16T07:36:34Z</time>
      </trkpt>
      <trkpt lat="44.33008" lon="3.60115">
        <ele>800.44</ele>
        <time>2014-05-16T07:36:40Z</time>
      </trkpt>
      <trkpt lat="44.32996" lon="3.601">
        <ele>795.15</ele>
        <time>2014-05-16T07:36:54Z</time>
      </trkpt>
      <trkpt lat="44.32961" lon="3.60144">
        <ele>791.78</ele>
        <time>2014-05-16T07:37:03Z</time>
      </trkpt>
      <trkpt lat="44.32956" lon="3.60102">
        <ele>785.05</ele>
        <time>2014-05-16T07:37:15Z</time>
      </trkpt>
      <trkpt lat="44.32966" lon="3.6004">
        <ele>779.77</ele>
        <time>2014-05-16T07:37:21Z</time>
      </trkpt>
      <trkpt lat="44.32998" lon="3.59986">
        <ele>774.96</ele>
        <time>2014-05-16T07:37:28Z</time>
      </trkpt>
      <trkpt lat="44.33039" lon="3.59944">
        <ele>769.19</ele>
        <time>2014-05-16T07:37:34Z</time>
      </trkpt>
      <trkpt lat="44.33073" lon="3.59896">
        <ele>761.98</ele>
        <time>2014-05-16T07:37:40Z</time>
      </trkpt>
      <trkpt lat="44.33122" lon="3.59881">
        <ele>756.69</ele>
        <time>2014-05-16T07:37:47Z</time>
      </trkpt>
      <trkpt lat="44.33169" lon="3.59862">
        <ele>757.18</ele>
        <time>2014-05-16T07:37:54Z</time>
      </trkpt>
      <trkpt lat="44.33209" lon="3.59831">
        <ele>757.66</ele>
        <time>2014-05-16T07:38:05Z</time>
      </trkpt>
      <trkpt lat="44.3317" lon="3.59856">
        <ele>756.69</ele>
        <time>2014-05-16T07:38:34Z</time>
      </trkpt>
      <trkpt lat="44.33126" lon="3.59879">
        <ele>754.77</ele>
        <time>2014-05-16T07:38:46Z</time>
      </trkpt>
      <trkpt lat="44.33137" lon="3.59859">
        <ele>749.49</ele>
        <time>2014-05-16T07:39:44Z</time>
      </trkpt>
      <trkpt lat="44.33143" lon="3.59826">
        <ele>741.79</ele>
        <time>2014-05-16T07:40:40Z</time>
      </trkpt>
      <trkpt lat="44.33149" lon="3.59776">
        <ele>731.7</ele>
        <time>2014-05-16T07:41:47Z</time>
      </trkpt>
      <trkpt lat="44.33181" lon="3.59729">
        <ele>723.05</ele>
        <time>2014-05-16T07:42:06Z</time>
      </trkpt>
      <trkpt lat="44.33203" lon="3.59671">
        <ele>716.32</ele>
        <time>2014-05-16T07:42:22Z</time>
      </trkpt>
      <trkpt lat="44.33213" lon="3.59606">
        <ele>703.82</ele>
        <time>2014-05-16T07:42:42Z</time>
      </trkpt>
      <trkpt lat="44.3323" lon="3.59538">
        <ele>690.84</ele>
        <time>2014-05-16T07:43:02Z</time>
      </trkpt>
      <trkpt lat="44.33251" lon="3.59469">
        <ele>680.75</ele>
        <time>2014-05-16T07:43:14Z</time>
      </trkpt>
      <trkpt lat="44.33281" lon="3.59417">
        <ele>670.66</ele>
        <time>2014-05-16T07:43:28Z</time>
      </trkpt>
      <trkpt lat="44.33256" lon="3.59358">
        <ele>660.08</ele>
        <time>2014-05-16T07:43:43Z</time>
      </trkpt>
      <trkpt lat="44.33285" lon="3.59322">
        <ele>648.07</ele>
        <time>2014-05-16T07:43:57Z</time>
      </trkpt>
      <trkpt lat="44.3328" lon="3.59263">
        <ele>637.01</ele>
        <time>2014-05-16T07:44:10Z</time>
      </trkpt>
      <trkpt lat="44.33328" lon="3.59234">
        <ele>624.99</ele>
        <time>2014-05-16T07:44:18Z</time>
      </trkpt>
      <trkpt lat="44.33365" lon="3.59202">
        <ele>613.94</ele>
        <time>2014-05-16T07:44:49Z</time>
      </trkpt>
      <trkpt lat="44.33383" lon="3.59137">
        <ele>600.96</ele>
        <time>2014-05-16T07:45:08Z</time>
      </trkpt>
      <trkpt lat="44.33375" lon="3.59072">
        <ele>594.23</ele>
        <time>2014-05-16T07:45:41Z</time>
      </trkpt>
      <trkpt lat="44.33327" lon="3.59068">
        <ele>590.87</ele>
        <time>2014-05-16T07:45:51Z</time>
      </trkpt>
      <trkpt lat="44.33282" lon="3.59045">
        <ele>581.73</ele>
        <time>2014-05-16T07:46:06Z</time>
      </trkpt>
      <trkpt lat="44.33237" lon="3.59064">
        <ele>574.53</ele>
        <time>2014-05-16T07:46:38Z</time>
      </trkpt>
      <trkpt lat="44.3322" lon="3.59062">
        <ele>560.11</ele>
        <time>2014-05-16T07:47:48Z</time>
      </trkpt>
      <trkpt lat="44.33176" lon="3.59114">
        <ele>548.57</ele>
        <time>2014-05-16T07:48:38Z</time>
      </trkpt>
      <trkpt lat="44.33146" lon="3.59105">
        <ele>544.72</ele>
        <time>2014-05-16T07:48:59Z</time>
      </trkpt>
      <trkpt lat="44.33115" lon="3.59063">
        <ele>544.24</ele>
        <time>2014-05-16T07:50:20Z</time>
      </trkpt>
      <trkpt lat="44.33073" lon="3.59047">
        <ele>543.28</ele>
        <time>2014-05-16T07:52:19Z</time>
      </trkpt>
      <trkpt lat="44.33028" lon="3.59074">
        <ele>541.36</ele>
        <time>2014-05-16T07:52:37Z</time>
      </trkpt>
      <trkpt lat="44.32986" lon="3.59105">
        <ele>541.36</ele>
        <time>2014-05-16T07:52:51Z</time>
      </trkpt>
      <trkpt lat="44.32943" lon="3.59136">
        <ele>541.36</ele>
        <time>2014-05-16T07:53:14Z</time>
      </trkpt>
      <trkpt lat="44.32901" lon="3.59165">
        <ele>542.32</ele>
        <time>2014-05-16T07:53:34Z</time>
      </trkpt>
      <trkpt lat="44.32863" lon="3.59131">
        <ele>542.32</ele>
        <time>2014-05-16T07:54:09Z</time>
      </trkpt>
      <trkpt lat="44.3282" lon="3.59136">
        <ele>542.8</ele>
        <time>2014-05-16T07:54:35Z</time>
      </trkpt>
      <trkpt lat="44.32778" lon="3.59161">
        <ele>544.24</ele>
        <time>2014-05-16T07:54:57Z</time>
      </trkpt>
      <trkpt lat="44.3274" lon="3.59201">
        <ele>546.17</ele>
        <time>2014-05-16T07:55:20Z</time>
      </trkpt>
      <trkpt lat="44.32699" lon="3.59228">
        <ele>546.17</ele>
        <time>2014-05-16T07:55:39Z</time>
      </trkpt>
      <trkpt lat="44.32725" lon="3.59219">
        <ele>546.17</ele>
        <time>2014-05-16T07:56:28Z</time>
      </trkpt>
      <trkpt lat="44.32765" lon="3.59178">
        <ele>545.69</ele>
        <time>2014-05-16T07:56:49Z</time>
      </trkpt>
      <trkpt lat="44.32805" lon="3.59148">
        <ele>544.24</ele>
        <time>2014-05-16T07:57:02Z</time>
      </trkpt>
      <trkpt lat="44.32847" lon="3.59119">
        <ele>543.76</ele>
        <time>2014-05-16T07:57:16Z</time>
      </trkpt>
      <trkpt lat="44.32846" lon="3.59094">
        <ele>545.2</ele>
        <time>2014-05-16T07:57:35Z</time>
      </trkpt>
      <trkpt lat="44.32853" lon="3.59132">
        <ele>543.76</ele>
        <time>2014-05-16T07:58:11Z</time>
      </trkpt>
      <trkpt lat="44.32847" lon="3.59098">
        <ele>545.69</ele>
        <time>2014-05-16T08:06:21Z</time>
      </trkpt>
      <trkpt lat="44.32851" lon="3.59126">
        <ele>549.53</ele>
        <time>2014-05-16T08:25:05Z</time>
      </trkpt>
      <trkpt lat="44.32871" lon="3.59151">
        <ele>548.09</ele>
        <time>2014-05-16T08:25:54Z</time>
      </trkpt>
      <trkpt lat="44.32852" lon="3.59205">
        <ele>548.57</ele>
        <time>2014-05-16T08:26:22Z</time>
      </trkpt>
      <trkpt lat="44.32814" lon="3.59239">
        <ele>548.09</ele>
        <time>2014-05-16T08:27:12Z</time>
      </trkpt>
      <trkpt lat="44.32774" lon="3.5927">
        <ele>548.57</ele>
        <time>2014-05-16T08:27:27Z</time>
      </trkpt>
      <trkpt lat="44.32733" lon="3.59299">
        <ele>549.05</ele>
        <time>2014-05-16T08:27:43Z</time>
      </trkpt>
      <trkpt lat="44.32693" lon="3.59331">
        <ele>548.57</ele>
        <time>2014-05-16T08:28:03Z</time>
      </trkpt>
      <trkpt lat="44.3265" lon="3.59364">
        <ele>549.05</ele>
        <time>2014-05-16T08:28:21Z</time>
      </trkpt>
      <trkpt lat="44.32609" lon="3.59394">
        <ele>549.53</ele>
        <time>2014-05-16T08:28:38Z</time>
      </trkpt>
      <trkpt lat="44.32568" lon="3.5943">
        <ele>549.53</ele>
        <time>2014-05-16T08:28:56Z</time>
      </trkpt>
      <trkpt lat="44.32526" lon="3.59461">
        <ele>550.01</ele>
        <time>2014-05-16T08:29:12Z</time>
      </trkpt>
      <trkpt lat="44.32485" lon="3.59491">
        <ele>550.01</ele>
        <time>2014-05-16T08:29:28Z</time>
      </trkpt>
      <trkpt lat="44.32467" lon="3.59432">
        <ele>551.45</ele>
        <time>2014-05-16T08:29:54Z</time>
      </trkpt>
      <trkpt lat="44.32457" lon="3.59423">
        <ele>551.45</ele>
        <time>2014-05-16T08:30:27Z</time>
      </trkpt>
      <trkpt lat="44.32411" lon="3.5944">
        <ele>552.41</ele>
        <time>2014-05-16T08:30:55Z</time>
      </trkpt>
      <trkpt lat="44.3236" lon="3.59458">
        <ele>554.82</ele>
        <time>2014-05-16T08:31:26Z</time>
      </trkpt>
      <trkpt lat="44.32309" lon="3.59482">
        <ele>553.38</ele>
        <time>2014-05-16T08:31:49Z</time>
      </trkpt>
      <trkpt lat="44.32266" lon="3.59518">
        <ele>552.41</ele>
        <time>2014-05-16T08:32:02Z</time>
      </trkpt>
      <trkpt lat="44.32228" lon="3.59556">
        <ele>551.93</ele>
        <time>2014-05-16T08:32:14Z</time>
      </trkpt>
      <trkpt lat="44.32192" lon="3.59595">
        <ele>551.93</ele>
        <time>2014-05-16T08:32:27Z</time>
      </trkpt>
      <trkpt lat="44.32151" lon="3.5963">
        <ele>552.41</ele>
        <time>2014-05-16T08:32:41Z</time>
      </trkpt>
      <trkpt lat="44.3211" lon="3.59664">
        <ele>551.93</ele>
        <time>2014-05-16T08:32:55Z</time>
      </trkpt>
      <trkpt lat="44.32074" lon="3.5969">
        <ele>551.93</ele>
        <time>2014-05-16T08:33:07Z</time>
      </trkpt>
      <trkpt lat="44.32032" lon="3.59715">
        <ele>552.41</ele>
        <time>2014-05-16T08:33:20Z</time>
      </trkpt>
      <trkpt lat="44.3199" lon="3.59742">
        <ele>551.93</ele>
        <time>2014-05-16T08:33:34Z</time>
      </trkpt>
      <trkpt lat="44.31946" lon="3.59753">
        <ele>552.41</ele>
        <time>2014-05-16T08:33:50Z</time>
      </trkpt>
      <trkpt lat="44.31902" lon="3.59773">
        <ele>552.9</ele>
        <time>2014-05-16T08:34:07Z</time>
      </trkpt>
      <trkpt lat="44.31856" lon="3.59781">
        <ele>553.38</ele>
        <time>2014-05-16T08:34:26Z</time>
      </trkpt>
      <trkpt lat="44.3181" lon="3.59791">
        <ele>553.86</ele>
        <time>2014-05-16T08:34:40Z</time>
      </trkpt>
      <trkpt lat="44.31762" lon="3.59797">
        <ele>553.38</ele>
        <time>2014-05-16T08:34:52Z</time>
      </trkpt>
      <trkpt lat="44.31717" lon="3.598">
        <ele>553.86</ele>
        <time>2014-05-16T08:35:05Z</time>
      </trkpt>
      <trkpt lat="44.31671" lon="3.59801">
        <ele>553.86</ele>
        <time>2014-05-16T08:35:18Z</time>
      </trkpt>
      <trkpt lat="44.31623" lon="3.59799">
        <ele>553.38</ele>
        <time>2014-05-16T08:35:31Z</time>
      </trkpt>
      <trkpt lat="44.31578" lon="3.59789">
        <ele>552.9</ele>
        <time>2014-05-16T08:35:42Z</time>
      </trkpt>
      <trkpt lat="44.31536" lon="3.59766">
        <ele>553.38</ele>
        <time>2014-05-16T08:35:54Z</time>
      </trkpt>
      <trkpt lat="44.3149" lon="3.5976">
        <ele>553.86</ele>
        <time>2014-05-16T08:36:06Z</time>
      </trkpt>
      <trkpt lat="44.31442" lon="3.59765">
        <ele>553.86</ele>
        <time>2014-05-16T08:36:19Z</time>
      </trkpt>
      <trkpt lat="44.31393" lon="3.59769">
        <ele>553.86</ele>
        <time>2014-05-16T08:36:34Z</time>
      </trkpt>
      <trkpt lat="44.31346" lon="3.59777">
        <ele>554.34</ele>
        <time>2014-05-16T08:36:49Z</time>
      </trkpt>
      <trkpt lat="44.31305" lon="3.59803">
        <ele>554.82</ele>
        <time>2014-05-16T08:37:03Z</time>
      </trkpt>
      <trkpt lat="44.31267" lon="3.59835">
        <ele>555.78</ele>
        <time>2014-05-16T08:37:17Z</time>
      </trkpt>
      <trkpt lat="44.31291" lon="3.59875">
        <ele>562.03</ele>
        <time>2014-05-16T08:40:58Z</time>
      </trkpt>
      <trkpt lat="44.31347" lon="3.59881">
        <ele>573.56</ele>
        <time>2014-05-16T08:42:27Z</time>
      </trkpt>
      <trkpt lat="44.31401" lon="3.59883">
        <ele>582.7</ele>
        <time>2014-05-16T08:43:46Z</time>
      </trkpt>
      <trkpt lat="44.31446" lon="3.59912">
        <ele>578.85</ele>
        <time>2014-05-16T08:44:06Z</time>
      </trkpt>
      <trkpt lat="44.31488" lon="3.59933">
        <ele>573.56</ele>
        <time>2014-05-16T08:44:17Z</time>
      </trkpt>
      <trkpt lat="44.31535" lon="3.59976">
        <ele>563.95</ele>
        <time>2014-05-16T08:44:42Z</time>
      </trkpt>
      <trkpt lat="44.31566" lon="3.60035">
        <ele>557.22</ele>
        <time>2014-05-16T08:44:56Z</time>
      </trkpt>
      <trkpt lat="44.3156" lon="3.601">
        <ele>558.18</ele>
        <time>2014-05-16T08:45:09Z</time>
      </trkpt>
      <trkpt lat="44.31541" lon="3.60165">
        <ele>558.66</ele>
        <time>2014-05-16T08:45:23Z</time>
      </trkpt>
      <trkpt lat="44.31527" lon="3.60238">
        <ele>560.11</ele>
        <time>2014-05-16T08:45:38Z</time>
      </trkpt>
      <trkpt lat="44.31523" lon="3.60309">
        <ele>561.07</ele>
        <time>2014-05-16T08:45:56Z</time>
      </trkpt>
      <trkpt lat="44.31527" lon="3.60384">
        <ele>562.03</ele>
        <time>2014-05-16T08:46:11Z</time>
      </trkpt>
      <trkpt lat="44.31549" lon="3.60449">
        <ele>562.99</ele>
        <time>2014-05-16T08:46:25Z</time>
      </trkpt>
      <trkpt lat="44.3157" lon="3.6051">
        <ele>563.47</ele>
        <time>2014-05-16T08:46:37Z</time>
      </trkpt>
      <trkpt lat="44.3157" lon="3.60575">
        <ele>564.43</ele>
        <time>2014-05-16T08:46:49Z</time>
      </trkpt>
      <trkpt lat="44.31547" lon="3.60636">
        <ele>566.35</ele>
        <time>2014-05-16T08:47:03Z</time>
      </trkpt>
      <trkpt lat="44.3159" lon="3.60629">
        <ele>567.8</ele>
        <time>2014-05-16T08:47:19Z</time>
      </trkpt>
      <trkpt lat="44.31634" lon="3.60638">
        <ele>571.16</ele>
        <time>2014-05-16T08:47:37Z</time>
      </trkpt>
      <trkpt lat="44.31673" lon="3.60675">
        <ele>573.08</ele>
        <time>2014-05-16T08:47:52Z</time>
      </trkpt>
      <trkpt lat="44.3171" lon="3.60716">
        <ele>573.56</ele>
        <time>2014-05-16T08:48:08Z</time>
      </trkpt>
      <trkpt lat="44.3175" lon="3.60762">
        <ele>576.93</ele>
        <time>2014-05-16T08:48:30Z</time>
      </trkpt>
      <trkpt lat="44.31782" lon="3.60814">
        <ele>582.22</ele>
        <time>2014-05-16T08:49:00Z</time>
      </trkpt>
      <trkpt lat="44.31788" lon="3.60875">
        <ele>585.1</ele>
        <time>2014-05-16T08:49:26Z</time>
      </trkpt>
      <trkpt lat="44.31777" lon="3.60935">
        <ele>588.95</ele>
        <time>2014-05-16T08:49:54Z</time>
      </trkpt>
      <trkpt lat="44.31747" lon="3.60982">
        <ele>591.35</ele>
        <time>2014-05-16T08:53:01Z</time>
      </trkpt>
      <trkpt lat="44.31716" lon="3.61033">
        <ele>594.71</ele>
        <time>2014-05-16T08:53:26Z</time>
      </trkpt>
      <trkpt lat="44.31684" lon="3.61082">
        <ele>599.04</ele>
        <time>2014-05-16T08:54:06Z</time>
      </trkpt>
      <trkpt lat="44.31642" lon="3.61113">
        <ele>603.85</ele>
        <time>2014-05-16T08:54:36Z</time>
      </trkpt>
      <trkpt lat="44.31589" lon="3.6112">
        <ele>609.13</ele>
        <time>2014-05-16T08:55:09Z</time>
      </trkpt>
      <trkpt lat="44.31529" lon="3.61134">
        <ele>612.5</ele>
        <time>2014-05-16T08:55:37Z</time>
      </trkpt>
      <trkpt lat="44.31475" lon="3.61161">
        <ele>616.82</ele>
        <time>2014-05-16T08:56:11Z</time>
      </trkpt>
      <trkpt lat="44.31423" lon="3.61191">
        <ele>621.15</ele>
        <time>2014-05-16T08:56:42Z</time>
      </trkpt>
      <trkpt lat="44.31384" lon="3.61236">
        <ele>623.07</ele>
        <time>2014-05-16T08:57:05Z</time>
      </trkpt>
      <trkpt lat="44.31354" lon="3.61293">
        <ele>621.15</ele>
        <time>2014-05-16T08:57:16Z</time>
      </trkpt>
      <trkpt lat="44.3133" lon="3.61356">
        <ele>618.26</ele>
        <time>2014-05-16T08:57:23Z</time>
      </trkpt>
      <trkpt lat="44.31312" lon="3.61416">
        <ele>614.42</ele>
        <time>2014-05-16T08:57:28Z</time>
      </trkpt>
      <trkpt lat="44.31303" lon="3.61492">
        <ele>612.98</ele>
        <time>2014-05-16T08:57:34Z</time>
      </trkpt>
      <trkpt lat="44.31294" lon="3.61566">
        <ele>611.06</ele>
        <time>2014-05-16T08:57:40Z</time>
      </trkpt>
      <trkpt lat="44.31283" lon="3.61631">
        <ele>609.61</ele>
        <time>2014-05-16T08:57:45Z</time>
      </trkpt>
      <trkpt lat="44.31274" lon="3.61693">
        <ele>608.17</ele>
        <time>2014-05-16T08:57:50Z</time>
      </trkpt>
      <trkpt lat="44.31247" lon="3.61753">
        <ele>605.77</ele>
        <time>2014-05-16T08:57:56Z</time>
      </trkpt>
      <trkpt lat="44.31207" lon="3.61787">
        <ele>602.4</ele>
        <time>2014-05-16T08:58:01Z</time>
      </trkpt>
      <trkpt lat="44.31167" lon="3.61825">
        <ele>601.92</ele>
        <time>2014-05-16T08:58:06Z</time>
      </trkpt>
      <trkpt lat="44.31144" lon="3.61868">
        <ele>599.52</ele>
        <time>2014-05-16T08:58:13Z</time>
      </trkpt>
      <trkpt lat="44.31187" lon="3.61893">
        <ele>599.52</ele>
        <time>2014-05-16T08:58:21Z</time>
      </trkpt>
      <trkpt lat="44.31234" lon="3.61879">
        <ele>600.96</ele>
        <time>2014-05-16T08:58:28Z</time>
      </trkpt>
      <trkpt lat="44.31285" lon="3.61882">
        <ele>603.36</ele>
        <time>2014-05-16T08:58:39Z</time>
      </trkpt>
      <trkpt lat="44.31278" lon="3.61922">
        <ele>604.81</ele>
        <time>2014-05-16T08:58:55Z</time>
      </trkpt>
      <trkpt lat="44.31246" lon="3.61968">
        <ele>606.73</ele>
        <time>2014-05-16T08:59:12Z</time>
      </trkpt>
      <trkpt lat="44.31254" lon="3.62033">
        <ele>608.65</ele>
        <time>2014-05-16T08:59:32Z</time>
      </trkpt>
      <trkpt lat="44.31263" lon="3.62094">
        <ele>609.61</ele>
        <time>2014-05-16T08:59:48Z</time>
      </trkpt>
      <trkpt lat="44.31292" lon="3.62145">
        <ele>612.02</ele>
        <time>2014-05-16T09:00:04Z</time>
      </trkpt>
      <trkpt lat="44.31321" lon="3.62195">
        <ele>612.98</ele>
        <time>2014-05-16T09:00:20Z</time>
      </trkpt>
      <trkpt lat="44.31345" lon="3.62252">
        <ele>613.94</ele>
        <time>2014-05-16T09:00:36Z</time>
      </trkpt>
      <trkpt lat="44.31377" lon="3.62303">
        <ele>615.38</ele>
        <time>2014-05-16T09:00:50Z</time>
      </trkpt>
      <trkpt lat="44.31419" lon="3.62341">
        <ele>617.3</ele>
        <time>2014-05-16T09:01:04Z</time>
      </trkpt>
      <trkpt lat="44.31457" lon="3.62386">
        <ele>619.71</ele>
        <time>2014-05-16T09:01:18Z</time>
      </trkpt>
      <trkpt lat="44.31499" lon="3.62408">
        <ele>621.15</ele>
        <time>2014-05-16T09:01:31Z</time>
      </trkpt>
      <trkpt lat="44.31542" lon="3.62437">
        <ele>622.59</ele>
        <time>2014-05-16T09:01:43Z</time>
      </trkpt>
      <trkpt lat="44.31564" lon="3.62494">
        <ele>624.03</ele>
        <time>2014-05-16T09:01:55Z</time>
      </trkpt>
      <trkpt lat="44.3157" lon="3.62544">
        <ele>623.55</ele>
        <time>2014-05-16T09:02:07Z</time>
      </trkpt>
      <trkpt lat="44.31524" lon="3.62573">
        <ele>622.11</ele>
        <time>2014-05-16T09:02:15Z</time>
      </trkpt>
      <trkpt lat="44.31477" lon="3.62596">
        <ele>619.71</ele>
        <time>2014-05-16T09:02:22Z</time>
      </trkpt>
      <trkpt lat="44.31441" lon="3.62635">
        <ele>618.26</ele>
        <time>2014-05-16T09:02:28Z</time>
      </trkpt>
      <trkpt lat="44.31406" lon="3.62682">
        <ele>617.3</ele>
        <time>2014-05-16T09:02:34Z</time>
      </trkpt>
      <trkpt lat="44.3137" lon="3.62727">
        <ele>615.86</ele>
        <time>2014-05-16T09:02:40Z</time>
      </trkpt>
      <trkpt lat="44.31335" lon="3.62774">
        <ele>613.94</ele>
        <time>2014-05-16T09:02:46Z</time>
      </trkpt>
      <trkpt lat="44.31298" lon="3.6282">
        <ele>612.02</ele>
        <time>2014-05-16T09:02:52Z</time>
      </trkpt>
      <trkpt lat="44.31268" lon="3.62877">
        <ele>610.09</ele>
        <time>2014-05-16T09:02:58Z</time>
      </trkpt>
      <trkpt lat="44.31245" lon="3.62939">
        <ele>608.17</ele>
        <time>2014-05-16T09:03:05Z</time>
      </trkpt>
      <trkpt lat="44.31228" lon="3.62998">
        <ele>608.17</ele>
        <time>2014-05-16T09:03:15Z</time>
      </trkpt>
      <trkpt lat="44.31206" lon="3.63052">
        <ele>616.34</ele>
        <time>2014-05-16T09:04:48Z</time>
      </trkpt>
      <trkpt lat="44.3118" lon="3.63117">
        <ele>624.51</ele>
        <time>2014-05-16T09:05:59Z</time>
      </trkpt>
      <trkpt lat="44.31159" lon="3.63163">
        <ele>628.84</ele>
        <time>2014-05-16T09:08:40Z</time>
      </trkpt>
      <trkpt lat="44.31164" lon="3.63099">
        <ele>634.61</ele>
        <time>2014-05-16T09:10:26Z</time>
      </trkpt>
      <trkpt lat="44.3114" lon="3.63148">
        <ele>640.86</ele>
        <time>2014-05-16T09:13:18Z</time>
      </trkpt>
      <trkpt lat="44.31102" lon="3.63178">
        <ele>646.62</ele>
        <time>2014-05-16T09:19:40Z</time>
      </trkpt>
      <trkpt lat="44.31049" lon="3.63172">
        <ele>654.31</ele>
        <time>2014-05-16T09:22:54Z</time>
      </trkpt>
      <trkpt lat="44.31" lon="3.63143">
        <ele>661.52</ele>
        <time>2014-05-16T09:24:42Z</time>
      </trkpt>
      <trkpt lat="44.3096" lon="3.63106">
        <ele>670.18</ele>
        <time>2014-05-16T09:25:48Z</time>
      </trkpt>
      <trkpt lat="44.3092" lon="3.6308">
        <ele>677.87</ele>
        <time>2014-05-16T09:26:59Z</time>
      </trkpt>
      <trkpt lat="44.30879" lon="3.63052">
        <ele>679.31</ele>
        <time>2014-05-16T09:27:23Z</time>
      </trkpt>
      <trkpt lat="44.30857" lon="3.63066">
        <ele>679.79</ele>
        <time>2014-05-16T09:28:08Z</time>
      </trkpt>
      <trkpt lat="44.30897" lon="3.63127">
        <ele>686.04</ele>
        <time>2014-05-16T09:28:51Z</time>
      </trkpt>
      <trkpt lat="44.30924" lon="3.63194">
        <ele>691.81</ele>
        <time>2014-05-16T09:29:49Z</time>
      </trkpt>
      <trkpt lat="44.30937" lon="3.63266">
        <ele>695.65</ele>
        <time>2014-05-16T09:30:29Z</time>
      </trkpt>
      <trkpt lat="44.30945" lon="3.63338">
        <ele>698.53</ele>
        <time>2014-05-16T09:30:57Z</time>
      </trkpt>
      <trkpt lat="44.30973" lon="3.63363">
        <ele>699.98</ele>
        <time>2014-05-16T09:33:45Z</time>
      </trkpt>
      <trkpt lat="44.30954" lon="3.63408">
        <ele>695.65</ele>
        <time>2014-05-16T09:35:46Z</time>
      </trkpt>
      <trkpt lat="44.30923" lon="3.63466">
        <ele>690.36</ele>
        <time>2014-05-16T09:35:55Z</time>
      </trkpt>
      <trkpt lat="44.30904" lon="3.63522">
        <ele>686.04</ele>
        <time>2014-05-16T09:36:01Z</time>
      </trkpt>
      <trkpt lat="44.30883" lon="3.6358">
        <ele>682.19</ele>
        <time>2014-05-16T09:36:07Z</time>
      </trkpt>
      <trkpt lat="44.30847" lon="3.63626">
        <ele>678.35</ele>
        <time>2014-05-16T09:36:12Z</time>
      </trkpt>
      <trkpt lat="44.3081" lon="3.63665">
        <ele>674.5</ele>
        <time>2014-05-16T09:36:17Z</time>
      </trkpt>
      <trkpt lat="44.3078" lon="3.63713">
        <ele>671.14</ele>
        <time>2014-05-16T09:36:26Z</time>
      </trkpt>
      <trkpt lat="44.30758" lon="3.63775">
        <ele>670.18</ele>
        <time>2014-05-16T09:36:52Z</time>
      </trkpt>
      <trkpt lat="44.30728" lon="3.63845">
        <ele>670.18</ele>
        <time>2014-05-16T09:37:20Z</time>
      </trkpt>
      <trkpt lat="44.30694" lon="3.63902">
        <ele>666.81</ele>
        <time>2014-05-16T09:37:33Z</time>
      </trkpt>
      <trkpt lat="44.30663" lon="3.63954">
        <ele>663.93</ele>
        <time>2014-05-16T09:37:44Z</time>
      </trkpt>
      <trkpt lat="44.30632" lon="3.64006">
        <ele>659.6</ele>
        <time>2014-05-16T09:37:57Z</time>
      </trkpt>
      <trkpt lat="44.30644" lon="3.64075">
        <ele>655.76</ele>
        <time>2014-05-16T09:38:08Z</time>
      </trkpt>
      <trkpt lat="44.30632" lon="3.64138">
        <ele>653.83</ele>
        <time>2014-05-16T09:38:21Z</time>
      </trkpt>
      <trkpt lat="44.30605" lon="3.64186">
        <ele>654.8</ele>
        <time>2014-05-16T09:39:11Z</time>
      </trkpt>
      <trkpt lat="44.30616" lon="3.64256">
        <ele>662.49</ele>
        <time>2014-05-16T09:40:12Z</time>
      </trkpt>
      <trkpt lat="44.30632" lon="3.64333">
        <ele>667.29</ele>
        <time>2014-05-16T09:40:46Z</time>
      </trkpt>
      <trkpt lat="44.30634" lon="3.64409">
        <ele>673.06</ele>
        <time>2014-05-16T09:41:24Z</time>
      </trkpt>
      <trkpt lat="44.30615" lon="3.64469">
        <ele>673.06</ele>
        <time>2014-05-16T09:41:43Z</time>
      </trkpt>
      <trkpt lat="44.30598" lon="3.64539">
        <ele>674.5</ele>
        <time>2014-05-16T09:42:07Z</time>
      </trkpt>
      <trkpt lat="44.30572" lon="3.646">
        <ele>675.46</ele>
        <time>2014-05-16T09:42:29Z</time>
      </trkpt>
      <trkpt lat="44.30539" lon="3.64653">
        <ele>677.39</ele>
        <time>2014-05-16T09:42:54Z</time>
      </trkpt>
      <trkpt lat="44.305" lon="3.64691">
        <ele>681.23</ele>
        <time>2014-05-16T09:43:25Z</time>
      </trkpt>
      <trkpt lat="44.30513" lon="3.64761">
        <ele>686.04</ele>
        <time>2014-05-16T09:44:00Z</time>
      </trkpt>
      <trkpt lat="44.30502" lon="3.64832">
        <ele>689.88</ele>
        <time>2014-05-16T09:44:34Z</time>
      </trkpt>
      <trkpt lat="44.30481" lon="3.64899">
        <ele>695.17</ele>
        <time>2014-05-16T09:45:11Z</time>
      </trkpt>
      <trkpt lat="44.30447" lon="3.64968">
        <ele>699.02</ele>
        <time>2014-05-16T09:45:51Z</time>
      </trkpt>
      <trkpt lat="44.30412" lon="3.65022">
        <ele>697.57</ele>
        <time>2014-05-16T09:46:04Z</time>
      </trkpt>
      <trkpt lat="44.30362" lon="3.6505">
        <ele>698.05</ele>
        <time>2014-05-16T09:46:19Z</time>
      </trkpt>
      <trkpt lat="44.30319" lon="3.65102">
        <ele>701.9</ele>
        <time>2014-05-16T09:46:39Z</time>
      </trkpt>
      <trkpt lat="44.30282" lon="3.65146">
        <ele>700.94</ele>
        <time>2014-05-16T09:46:55Z</time>
      </trkpt>
      <trkpt lat="44.30271" lon="3.65201">
        <ele>703.82</ele>
        <time>2014-05-16T09:47:16Z</time>
      </trkpt>
      <trkpt lat="44.30267" lon="3.65276">
        <ele>709.11</ele>
        <time>2014-05-16T09:47:52Z</time>
      </trkpt>
      <trkpt lat="44.30271" lon="3.65346">
        <ele>719.68</ele>
        <time>2014-05-16T09:52:53Z</time>
      </trkpt>
      <trkpt lat="44.30285" lon="3.65412">
        <ele>727.37</ele>
        <time>2014-05-16T09:53:56Z</time>
      </trkpt>
      <trkpt lat="44.30301" lon="3.65482">
        <ele>730.26</ele>
        <time>2014-05-16T09:54:26Z</time>
      </trkpt>
      <trkpt lat="44.30325" lon="3.65541">
        <ele>731.7</ele>
        <time>2014-05-16T09:54:54Z</time>
      </trkpt>
      <trkpt lat="44.30342" lon="3.65602">
        <ele>730.26</ele>
        <time>2014-05-16T09:55:11Z</time>
      </trkpt>
      <trkpt lat="44.30347" lon="3.65666">
        <ele>727.37</ele>
        <time>2014-05-16T09:55:25Z</time>
      </trkpt>
      <trkpt lat="44.30329" lon="3.65726">
        <ele>727.86</ele>
        <time>2014-05-16T09:55:42Z</time>
      </trkpt>
      <trkpt lat="44.30296" lon="3.65775">
        <ele>727.37</ele>
        <time>2014-05-16T09:56:00Z</time>
      </trkpt>
      <trkpt lat="44.3026" lon="3.65818">
        <ele>729.3</ele>
        <time>2014-05-16T09:56:20Z</time>
      </trkpt>
      <trkpt lat="44.30218" lon="3.65856">
        <ele>733.14</ele>
        <time>2014-05-16T09:56:46Z</time>
      </trkpt>
      <trkpt lat="44.30174" lon="3.65887">
        <ele>735.55</ele>
        <time>2014-05-16T09:57:12Z</time>
      </trkpt>
      <trkpt lat="44.3013" lon="3.65882">
        <ele>740.35</ele>
        <time>2014-05-16T09:57:44Z</time>
      </trkpt>
      <trkpt lat="44.30097" lon="3.65855">
        <ele>739.39</ele>
        <time>2014-05-16T10:02:54Z</time>
      </trkpt>
      <trkpt lat="44.30053" lon="3.65861">
        <ele>738.91</ele>
        <time>2014-05-16T10:03:13Z</time>
      </trkpt>
      <trkpt lat="44.30009" lon="3.65839">
        <ele>741.79</ele>
        <time>2014-05-16T10:03:37Z</time>
      </trkpt>
      <trkpt lat="44.29972" lon="3.65805">
        <ele>742.28</ele>
        <time>2014-05-16T10:04:02Z</time>
      </trkpt>
      <trkpt lat="44.29924" lon="3.65812">
        <ele>736.51</ele>
        <time>2014-05-16T10:04:43Z</time>
      </trkpt>
      <trkpt lat="44.29877" lon="3.65814">
        <ele>733.62</ele>
        <time>2014-05-16T10:04:58Z</time>
      </trkpt>
      <trkpt lat="44.29877" lon="3.65829">
        <ele>729.78</ele>
        <time>2014-05-16T10:05:31Z</time>
      </trkpt>
      <trkpt lat="44.29926" lon="3.6585">
        <ele>722.09</ele>
        <time>2014-05-16T10:05:45Z</time>
      </trkpt>
      <trkpt lat="44.29966" lon="3.65885">
        <ele>717.76</ele>
        <time>2014-05-16T10:05:54Z</time>
      </trkpt>
      <trkpt lat="44.29997" lon="3.65935">
        <ele>714.4</ele>
        <time>2014-05-16T10:06:01Z</time>
      </trkpt>
      <trkpt lat="44.30027" lon="3.65989">
        <ele>708.15</ele>
        <time>2014-05-16T10:06:08Z</time>
      </trkpt>
      <trkpt lat="44.3007" lon="3.66024">
        <ele>703.34</ele>
        <time>2014-05-16T10:06:16Z</time>
      </trkpt>
      <trkpt lat="44.30118" lon="3.66042">
        <ele>699.5</ele>
        <time>2014-05-16T10:06:23Z</time>
      </trkpt>
      <trkpt lat="44.30166" lon="3.66055">
        <ele>696.13</ele>
        <time>2014-05-16T10:06:30Z</time>
      </trkpt>
      <trkpt lat="44.30215" lon="3.66043">
        <ele>691.33</ele>
        <time>2014-05-16T10:06:37Z</time>
      </trkpt>
      <trkpt lat="44.30251" lon="3.66008">
        <ele>688.44</ele>
        <time>2014-05-16T10:06:42Z</time>
      </trkpt>
      <trkpt lat="44.30293" lon="3.65968">
        <ele>684.6</ele>
        <time>2014-05-16T10:06:47Z</time>
      </trkpt>
      <trkpt lat="44.30337" lon="3.6593">
        <ele>680.27</ele>
        <time>2014-05-16T10:06:52Z</time>
      </trkpt>
      <trkpt lat="44.30383" lon="3.6589">
        <ele>674.98</ele>
        <time>2014-05-16T10:06:58Z</time>
      </trkpt>
      <trkpt lat="44.30429" lon="3.65858">
        <ele>670.18</ele>
        <time>2014-05-16T10:07:03Z</time>
      </trkpt>
      <trkpt lat="44.30476" lon="3.65826">
        <ele>665.85</ele>
        <time>2014-05-16T10:07:08Z</time>
      </trkpt>
      <trkpt lat="44.30518" lon="3.65794">
        <ele>662.97</ele>
        <time>2014-05-16T10:07:15Z</time>
      </trkpt>
      <trkpt lat="44.3054" lon="3.65734">
        <ele>658.16</ele>
        <time>2014-05-16T10:07:21Z</time>
      </trkpt>
      <trkpt lat="44.30558" lon="3.65667">
        <ele>653.35</ele>
        <time>2014-05-16T10:07:26Z</time>
      </trkpt>
      <trkpt lat="44.30583" lon="3.65598">
        <ele>648.55</ele>
        <time>2014-05-16T10:07:31Z</time>
      </trkpt>
      <trkpt lat="44.30597" lon="3.65535">
        <ele>642.78</ele>
        <time>2014-05-16T10:07:37Z</time>
      </trkpt>
      <trkpt lat="44.3057" lon="3.6547">
        <ele>638.93</ele>
        <time>2014-05-16T10:07:43Z</time>
      </trkpt>
      <trkpt lat="44.30552" lon="3.65423">
        <ele>635.09</ele>
        <time>2014-05-16T10:07:51Z</time>
      </trkpt>
      <trkpt lat="44.30583" lon="3.6547">
        <ele>633.65</ele>
        <time>2014-05-16T10:08:03Z</time>
      </trkpt>
      <trkpt lat="44.30605" lon="3.65525">
        <ele>632.2</ele>
        <time>2014-05-16T10:08:12Z</time>
      </trkpt>
      <trkpt lat="44.30611" lon="3.65594">
        <ele>632.2</ele>
        <time>2014-05-16T10:08:21Z</time>
      </trkpt>
      <trkpt lat="44.30614" lon="3.65658">
        <ele>631.72</ele>
        <time>2014-05-16T10:08:29Z</time>
      </trkpt>
      <trkpt lat="44.30615" lon="3.65728">
        <ele>630.76</ele>
        <time>2014-05-16T10:08:38Z</time>
      </trkpt>
      <trkpt lat="44.30604" lon="3.6579">
        <ele>630.28</ele>
        <time>2014-05-16T10:08:47Z</time>
      </trkpt>
      <trkpt lat="44.30573" lon="3.65839">
        <ele>629.32</ele>
        <time>2014-05-16T10:08:56Z</time>
      </trkpt>
      <trkpt lat="44.30532" lon="3.65874">
        <ele>627.88</ele>
        <time>2014-05-16T10:09:04Z</time>
      </trkpt>
      <trkpt lat="44.3049" lon="3.6591">
        <ele>626.92</ele>
        <time>2014-05-16T10:09:11Z</time>
      </trkpt>
      <trkpt lat="44.30447" lon="3.6595">
        <ele>625.47</ele>
        <time>2014-05-16T10:09:18Z</time>
      </trkpt>
      <trkpt lat="44.3041" lon="3.65992">
        <ele>624.51</ele>
        <time>2014-05-16T10:09:25Z</time>
      </trkpt>
      <trkpt lat="44.30377" lon="3.66039">
        <ele>623.55</ele>
        <time>2014-05-16T10:09:32Z</time>
      </trkpt>
      <trkpt lat="44.30348" lon="3.66091">
        <ele>622.59</ele>
        <time>2014-05-16T10:09:39Z</time>
      </trkpt>
      <trkpt lat="44.30321" lon="3.66147">
        <ele>621.63</ele>
        <time>2014-05-16T10:09:46Z</time>
      </trkpt>
      <trkpt lat="44.30292" lon="3.66207">
        <ele>619.71</ele>
        <time>2014-05-16T10:09:53Z</time>
      </trkpt>
      <trkpt lat="44.30263" lon="3.66264">
        <ele>618.26</ele>
        <time>2014-05-16T10:10:00Z</time>
      </trkpt>
      <trkpt lat="44.30232" lon="3.66316">
        <ele>616.82</ele>
        <time>2014-05-16T10:10:07Z</time>
      </trkpt>
      <trkpt lat="44.30185" lon="3.66343">
        <ele>616.34</ele>
        <time>2014-05-16T10:10:14Z</time>
      </trkpt>
      <trkpt lat="44.30139" lon="3.66339">
        <ele>615.86</ele>
        <time>2014-05-16T10:10:21Z</time>
      </trkpt>
      <trkpt lat="44.30108" lon="3.66386">
        <ele>617.3</ele>
        <time>2014-05-16T10:10:33Z</time>
      </trkpt>
      <trkpt lat="44.30064" lon="3.66368">
        <ele>618.75</ele>
        <time>2014-05-16T10:10:55Z</time>
      </trkpt>
      <trkpt lat="44.30019" lon="3.6639">
        <ele>621.15</ele>
        <time>2014-05-16T10:11:22Z</time>
      </trkpt>
      <trkpt lat="44.29973" lon="3.66419">
        <ele>620.67</ele>
        <time>2014-05-16T10:11:40Z</time>
      </trkpt>
      <trkpt lat="44.2993" lon="3.66421">
        <ele>620.67</ele>
        <time>2014-05-16T10:12:00Z</time>
      </trkpt>
      <trkpt lat="44.29933" lon="3.66425">
        <ele>622.59</ele>
        <time>2014-05-16T11:10:47Z</time>
      </trkpt>
      <trkpt lat="44.29935" lon="3.66426">
        <ele>622.59</ele>
        <time>2014-05-16T11:19:12Z</time>
      </trkpt>
      <trkpt lat="44.29924" lon="3.66455">
        <ele>623.07</ele>
        <time>2014-05-16T11:19:34Z</time>
      </trkpt>
      <trkpt lat="44.29877" lon="3.66482">
        <ele>623.07</ele>
        <time>2014-05-16T11:20:01Z</time>
      </trkpt>
      <trkpt lat="44.29833" lon="3.66506">
        <ele>622.59</ele>
        <time>2014-05-16T11:20:22Z</time>
      </trkpt>
      <trkpt lat="44.29802" lon="3.66553">
        <ele>622.59</ele>
        <time>2014-05-16T11:20:40Z</time>
      </trkpt>
      <trkpt lat="44.2978" lon="3.66611">
        <ele>622.59</ele>
        <time>2014-05-16T11:20:58Z</time>
      </trkpt>
      <trkpt lat="44.2977" lon="3.66674">
        <ele>622.11</ele>
        <time>2014-05-16T11:21:20Z</time>
      </trkpt>
      <trkpt lat="44.29767" lon="3.66745">
        <ele>622.59</ele>
        <time>2014-05-16T11:21:40Z</time>
      </trkpt>
      <trkpt lat="44.29756" lon="3.66813">
        <ele>622.11</ele>
        <time>2014-05-16T11:21:59Z</time>
      </trkpt>
      <trkpt lat="44.29756" lon="3.66885">
        <ele>622.11</ele>
        <time>2014-05-16T11:22:17Z</time>
      </trkpt>
      <trkpt lat="44.29765" lon="3.66955">
        <ele>623.07</ele>
        <time>2014-05-16T11:22:37Z</time>
      </trkpt>
      <trkpt lat="44.29779" lon="3.67021">
        <ele>623.07</ele>
        <time>2014-05-16T11:22:55Z</time>
      </trkpt>
      <trkpt lat="44.29798" lon="3.67082">
        <ele>624.03</ele>
        <time>2014-05-16T11:23:14Z</time>
      </trkpt>
      <trkpt lat="44.29826" lon="3.67124">
        <ele>624.99</ele>
        <time>2014-05-16T11:27:07Z</time>
      </trkpt>
      <trkpt lat="44.29853" lon="3.67157">
        <ele>625.47</ele>
        <time>2014-05-16T11:33:52Z</time>
      </trkpt>
      <trkpt lat="44.29894" lon="3.67193">
        <ele>626.44</ele>
        <time>2014-05-16T11:34:21Z</time>
      </trkpt>
      <trkpt lat="44.29928" lon="3.67241">
        <ele>627.88</ele>
        <time>2014-05-16T11:34:48Z</time>
      </trkpt>
      <trkpt lat="44.29944" lon="3.67307">
        <ele>629.32</ele>
        <time>2014-05-16T11:35:12Z</time>
      </trkpt>
      <trkpt lat="44.29938" lon="3.67372">
        <ele>629.8</ele>
        <time>2014-05-16T11:35:36Z</time>
      </trkpt>
      <trkpt lat="44.29927" lon="3.67437">
        <ele>630.28</ele>
        <time>2014-05-16T11:36:01Z</time>
      </trkpt>
      <trkpt lat="44.29933" lon="3.67507">
        <ele>631.24</ele>
        <time>2014-05-16T11:36:22Z</time>
      </trkpt>
      <trkpt lat="44.29947" lon="3.67576">
        <ele>632.68</ele>
        <time>2014-05-16T11:36:43Z</time>
      </trkpt>
      <trkpt lat="44.29976" lon="3.67641">
        <ele>632.68</ele>
        <time>2014-05-16T11:37:03Z</time>
      </trkpt>
      <trkpt lat="44.30009" lon="3.67692">
        <ele>634.13</ele>
        <time>2014-05-16T11:37:22Z</time>
      </trkpt>
      <trkpt lat="44.30032" lon="3.67756">
        <ele>634.61</ele>
        <time>2014-05-16T11:37:41Z</time>
      </trkpt>
      <trkpt lat="44.30032" lon="3.67823">
        <ele>635.09</ele>
        <time>2014-05-16T11:38:00Z</time>
      </trkpt>
      <trkpt lat="44.3001" lon="3.67882">
        <ele>636.53</ele>
        <time>2014-05-16T11:38:19Z</time>
      </trkpt>
      <trkpt lat="44.29985" lon="3.67935">
        <ele>636.53</ele>
        <time>2014-05-16T11:38:37Z</time>
      </trkpt>
      <trkpt lat="44.29965" lon="3.67992">
        <ele>637.49</ele>
        <time>2014-05-16T11:38:55Z</time>
      </trkpt>
      <trkpt lat="44.29917" lon="3.68025">
        <ele>638.93</ele>
        <time>2014-05-16T11:39:12Z</time>
      </trkpt>
      <trkpt lat="44.29906" lon="3.68094">
        <ele>639.89</ele>
        <time>2014-05-16T11:39:33Z</time>
      </trkpt>
      <trkpt lat="44.29887" lon="3.68157">
        <ele>640.86</ele>
        <time>2014-05-16T11:39:51Z</time>
      </trkpt>
      <trkpt lat="44.29865" lon="3.68214">
        <ele>641.82</ele>
        <time>2014-05-16T11:40:08Z</time>
      </trkpt>
      <trkpt lat="44.29834" lon="3.68263">
        <ele>642.78</ele>
        <time>2014-05-16T11:40:25Z</time>
      </trkpt>
      <trkpt lat="44.29798" lon="3.68301">
        <ele>643.26</ele>
        <time>2014-05-16T11:40:41Z</time>
      </trkpt>
      <trkpt lat="44.29786" lon="3.68362">
        <ele>644.7</ele>
        <time>2014-05-16T11:40:59Z</time>
      </trkpt>
      <trkpt lat="44.29741" lon="3.68379">
        <ele>644.7</ele>
        <time>2014-05-16T11:41:16Z</time>
      </trkpt>
      <trkpt lat="44.29694" lon="3.68385">
        <ele>646.62</ele>
        <time>2014-05-16T11:41:34Z</time>
      </trkpt>
      <trkpt lat="44.29643" lon="3.68402">
        <ele>646.62</ele>
        <time>2014-05-16T11:41:52Z</time>
      </trkpt>
      <trkpt lat="44.29588" lon="3.68404">
        <ele>647.59</ele>
        <time>2014-05-16T11:42:09Z</time>
      </trkpt>
      <trkpt lat="44.29542" lon="3.68378">
        <ele>648.55</ele>
        <time>2014-05-16T11:42:28Z</time>
      </trkpt>
      <trkpt lat="44.29495" lon="3.6836">
        <ele>650.95</ele>
        <time>2014-05-16T11:42:59Z</time>
      </trkpt>
      <trkpt lat="44.29417" lon="3.68416">
        <ele>651.43</ele>
        <time>2014-05-16T11:43:20Z</time>
      </trkpt>
      <trkpt lat="44.29377" lon="3.68451">
        <ele>651.91</ele>
        <time>2014-05-16T11:43:38Z</time>
      </trkpt>
      <trkpt lat="44.2933" lon="3.68466">
        <ele>652.87</ele>
        <time>2014-05-16T11:43:56Z</time>
      </trkpt>
      <trkpt lat="44.29282" lon="3.68486">
        <ele>654.31</ele>
        <time>2014-05-16T11:44:16Z</time>
      </trkpt>
      <trkpt lat="44.29245" lon="3.68536">
        <ele>655.76</ele>
        <time>2014-05-16T11:44:37Z</time>
      </trkpt>
      <trkpt lat="44.2923" lon="3.68603">
        <ele>656.24</ele>
        <time>2014-05-16T11:44:55Z</time>
      </trkpt>
      <trkpt lat="44.29221" lon="3.68669">
        <ele>657.68</ele>
        <time>2014-05-16T11:45:13Z</time>
      </trkpt>
      <trkpt lat="44.29193" lon="3.6872">
        <ele>658.64</ele>
        <time>2014-05-16T11:45:31Z</time>
      </trkpt>
      <trkpt lat="44.29153" lon="3.68765">
        <ele>659.12</ele>
        <time>2014-05-16T11:45:52Z</time>
      </trkpt>
      <trkpt lat="44.29096" lon="3.68792">
        <ele>660.56</ele>
        <time>2014-05-16T11:46:13Z</time>
      </trkpt>
      <trkpt lat="44.29041" lon="3.68814">
        <ele>661.52</ele>
        <time>2014-05-16T11:46:31Z</time>
      </trkpt>
      <trkpt lat="44.29005" lon="3.6886">
        <ele>661.52</ele>
        <time>2014-05-16T11:46:45Z</time>
      </trkpt>
      <trkpt lat="44.28981" lon="3.68919">
        <ele>662.01</ele>
        <time>2014-05-16T11:46:58Z</time>
      </trkpt>
      <trkpt lat="44.28945" lon="3.68961">
        <ele>662.01</ele>
        <time>2014-05-16T11:47:10Z</time>
      </trkpt>
      <trkpt lat="44.28893" lon="3.68973">
        <ele>662.01</ele>
        <time>2014-05-16T11:47:22Z</time>
      </trkpt>
      <trkpt lat="44.28843" lon="3.68952">
        <ele>661.52</ele>
        <time>2014-05-16T11:47:34Z</time>
      </trkpt>
      <trkpt lat="44.28795" lon="3.68938">
        <ele>662.01</ele>
        <time>2014-05-16T11:47:46Z</time>
      </trkpt>
      <trkpt lat="44.28746" lon="3.6894">
        <ele>662.49</ele>
        <time>2014-05-16T11:47:57Z</time>
      </trkpt>
      <trkpt lat="44.28703" lon="3.68969">
        <ele>662.01</ele>
        <time>2014-05-16T11:48:08Z</time>
      </trkpt>
      <trkpt lat="44.28662" lon="3.69002">
        <ele>662.49</ele>
        <time>2014-05-16T11:48:19Z</time>
      </trkpt>
      <trkpt lat="44.2862" lon="3.69033">
        <ele>662.01</ele>
        <time>2014-05-16T11:48:31Z</time>
      </trkpt>
      <trkpt lat="44.28582" lon="3.69069">
        <ele>662.49</ele>
        <time>2014-05-16T11:48:42Z</time>
      </trkpt>
      <trkpt lat="44.28552" lon="3.69122">
        <ele>662.49</ele>
        <time>2014-05-16T11:48:54Z</time>
      </trkpt>
      <trkpt lat="44.2853" lon="3.69181">
        <ele>662.49</ele>
        <time>2014-05-16T11:49:05Z</time>
      </trkpt>
      <trkpt lat="44.28506" lon="3.69238">
        <ele>662.97</ele>
        <time>2014-05-16T11:49:16Z</time>
      </trkpt>
      <trkpt lat="44.28472" lon="3.69283">
        <ele>663.45</ele>
        <time>2014-05-16T11:49:27Z</time>
      </trkpt>
      <trkpt lat="44.2843" lon="3.69326">
        <ele>663.93</ele>
        <time>2014-05-16T11:49:39Z</time>
      </trkpt>
      <trkpt lat="44.28387" lon="3.69369">
        <ele>663.93</ele>
        <time>2014-05-16T11:49:51Z</time>
      </trkpt>
      <trkpt lat="44.2835" lon="3.69407">
        <ele>663.93</ele>
        <time>2014-05-16T11:50:01Z</time>
      </trkpt>
      <trkpt lat="44.28309" lon="3.69441">
        <ele>663.45</ele>
        <time>2014-05-16T11:50:11Z</time>
      </trkpt>
      <trkpt lat="44.2827" lon="3.69475">
        <ele>663.93</ele>
        <time>2014-05-16T11:50:22Z</time>
      </trkpt>
      <trkpt lat="44.28246" lon="3.69533">
        <ele>663.93</ele>
        <time>2014-05-16T11:50:33Z</time>
      </trkpt>
      <trkpt lat="44.28229" lon="3.69593">
        <ele>664.89</ele>
        <time>2014-05-16T11:50:43Z</time>
      </trkpt>
      <trkpt lat="44.28197" lon="3.69643">
        <ele>664.41</ele>
        <time>2014-05-16T11:50:53Z</time>
      </trkpt>
      <trkpt lat="44.28154" lon="3.69661">
        <ele>664.89</ele>
        <time>2014-05-16T11:51:03Z</time>
      </trkpt>
      <trkpt lat="44.28107" lon="3.69662">
        <ele>664.41</ele>
        <time>2014-05-16T11:51:21Z</time>
      </trkpt>
      <trkpt lat="44.28062" lon="3.69677">
        <ele>665.37</ele>
        <time>2014-05-16T11:51:40Z</time>
      </trkpt>
      <trkpt lat="44.28018" lon="3.69702">
        <ele>664.41</ele>
        <time>2014-05-16T11:52:00Z</time>
      </trkpt>
      <trkpt lat="44.27994" lon="3.69755">
        <ele>664.89</ele>
        <time>2014-05-16T11:52:16Z</time>
      </trkpt>
      <trkpt lat="44.2799" lon="3.69818">
        <ele>664.41</ele>
        <time>2014-05-16T11:52:30Z</time>
      </trkpt>
      <trkpt lat="44.27994" lon="3.69885">
        <ele>665.37</ele>
        <time>2014-05-16T11:52:44Z</time>
      </trkpt>
      <trkpt lat="44.27985" lon="3.69952">
        <ele>665.37</ele>
        <time>2014-05-16T11:52:59Z</time>
      </trkpt>
      <trkpt lat="44.27986" lon="3.70018">
        <ele>665.85</ele>
        <time>2014-05-16T11:53:13Z</time>
      </trkpt>
      <trkpt lat="44.27992" lon="3.70087">
        <ele>666.33</ele>
        <time>2014-05-16T11:53:30Z</time>
      </trkpt>
      <trkpt lat="44.27988" lon="3.70154">
        <ele>667.77</ele>
        <time>2014-05-16T11:53:45Z</time>
      </trkpt>
      <trkpt lat="44.27968" lon="3.70217">
        <ele>667.77</ele>
        <time>2014-05-16T11:54:00Z</time>
      </trkpt>
      <trkpt lat="44.27947" lon="3.70279">
        <ele>669.7</ele>
        <time>2014-05-16T11:54:17Z</time>
      </trkpt>
      <trkpt lat="44.27925" lon="3.70342">
        <ele>669.22</ele>
        <time>2014-05-16T11:54:57Z</time>
      </trkpt>
      <trkpt lat="44.27903" lon="3.70405">
        <ele>671.62</ele>
        <time>2014-05-16T11:55:15Z</time>
      </trkpt>
      <trkpt lat="44.27882" lon="3.7047">
        <ele>672.1</ele>
        <time>2014-05-16T11:55:31Z</time>
      </trkpt>
      <trkpt lat="44.27876" lon="3.70542">
        <ele>673.06</ele>
        <time>2014-05-16T11:55:48Z</time>
      </trkpt>
      <trkpt lat="44.27873" lon="3.70607">
        <ele>674.02</ele>
        <time>2014-05-16T11:56:03Z</time>
      </trkpt>
      <trkpt lat="44.27862" lon="3.70672">
        <ele>674.5</ele>
        <time>2014-05-16T11:56:18Z</time>
      </trkpt>
      <trkpt lat="44.27826" lon="3.70719">
        <ele>675.46</ele>
        <time>2014-05-16T11:56:33Z</time>
      </trkpt>
      <trkpt lat="44.27783" lon="3.70758">
        <ele>676.91</ele>
        <time>2014-05-16T11:56:48Z</time>
      </trkpt>
      <trkpt lat="44.27755" lon="3.70813">
        <ele>677.87</ele>
        <time>2014-05-16T11:57:05Z</time>
      </trkpt>
      <trkpt lat="44.27762" lon="3.70887">
        <ele>678.83</ele>
        <time>2014-05-16T11:57:21Z</time>
      </trkpt>
      <trkpt lat="44.27788" lon="3.70946">
        <ele>678.83</ele>
        <time>2014-05-16T11:57:35Z</time>
      </trkpt>
      <trkpt lat="44.2782" lon="3.70992">
        <ele>678.83</ele>
        <time>2014-05-16T11:57:47Z</time>
      </trkpt>
      <trkpt lat="44.27839" lon="3.71056">
        <ele>680.27</ele>
        <time>2014-05-16T11:58:03Z</time>
      </trkpt>
      <trkpt lat="44.2785" lon="3.71127">
        <ele>679.31</ele>
        <time>2014-05-16T11:58:17Z</time>
      </trkpt>
      <trkpt lat="44.27852" lon="3.71194">
        <ele>679.31</ele>
        <time>2014-05-16T11:58:29Z</time>
      </trkpt>
      <trkpt lat="44.27828" lon="3.71255">
        <ele>679.31</ele>
        <time>2014-05-16T11:58:40Z</time>
      </trkpt>
      <trkpt lat="44.27798" lon="3.71311">
        <ele>678.35</ele>
        <time>2014-05-16T11:58:51Z</time>
      </trkpt>
      <trkpt lat="44.27774" lon="3.7137">
        <ele>680.27</ele>
        <time>2014-05-16T11:59:03Z</time>
      </trkpt>
      <trkpt lat="44.27754" lon="3.71427">
        <ele>680.75</ele>
        <time>2014-05-16T11:59:16Z</time>
      </trkpt>
      <trkpt lat="44.27814" lon="3.71514">
        <ele>681.23</ele>
        <time>2014-05-16T11:59:27Z</time>
      </trkpt>
      <trkpt lat="44.27816" lon="3.71579">
        <ele>682.19</ele>
        <time>2014-05-16T11:59:39Z</time>
      </trkpt>
      <trkpt lat="44.27801" lon="3.71644">
        <ele>683.63</ele>
        <time>2014-05-16T11:59:51Z</time>
      </trkpt>
      <trkpt lat="44.27797" lon="3.71711">
        <ele>683.63</ele>
        <time>2014-05-16T12:00:03Z</time>
      </trkpt>
      <trkpt lat="44.27798" lon="3.71784">
        <ele>684.6</ele>
        <time>2014-05-16T12:00:17Z</time>
      </trkpt>
      <trkpt lat="44.27796" lon="3.71851">
        <ele>684.6</ele>
        <time>2014-05-16T12:00:30Z</time>
      </trkpt>
      <trkpt lat="44.27782" lon="3.71928">
        <ele>685.08</ele>
        <time>2014-05-16T12:00:45Z</time>
      </trkpt>
      <trkpt lat="44.2778" lon="3.72001">
        <ele>685.56</ele>
        <time>2014-05-16T12:00:58Z</time>
      </trkpt>
      <trkpt lat="44.27788" lon="3.72074">
        <ele>686.52</ele>
        <time>2014-05-16T12:01:11Z</time>
      </trkpt>
      <trkpt lat="44.27795" lon="3.72145">
        <ele>687</ele>
        <time>2014-05-16T12:01:24Z</time>
      </trkpt>
      <trkpt lat="44.27805" lon="3.72212">
        <ele>686.52</ele>
        <time>2014-05-16T12:01:36Z</time>
      </trkpt>
      <trkpt lat="44.27803" lon="3.72279">
        <ele>687</ele>
        <time>2014-05-16T12:01:49Z</time>
      </trkpt>
      <trkpt lat="44.27781" lon="3.72339">
        <ele>688.92</ele>
        <time>2014-05-16T12:02:03Z</time>
      </trkpt>
      <trkpt lat="44.27739" lon="3.72378">
        <ele>688.92</ele>
        <time>2014-05-16T12:02:20Z</time>
      </trkpt>
      <trkpt lat="44.27699" lon="3.72411">
        <ele>689.4</ele>
        <time>2014-05-16T12:02:37Z</time>
      </trkpt>
      <trkpt lat="44.27657" lon="3.72452">
        <ele>690.36</ele>
        <time>2014-05-16T12:02:53Z</time>
      </trkpt>
      <trkpt lat="44.27622" lon="3.72506">
        <ele>691.33</ele>
        <time>2014-05-16T12:03:09Z</time>
      </trkpt>
      <trkpt lat="44.27586" lon="3.72547">
        <ele>691.81</ele>
        <time>2014-05-16T12:03:22Z</time>
      </trkpt>
      <trkpt lat="44.27553" lon="3.72591">
        <ele>693.25</ele>
        <time>2014-05-16T12:03:36Z</time>
      </trkpt>
      <trkpt lat="44.27529" lon="3.72646">
        <ele>693.73</ele>
        <time>2014-05-16T12:03:49Z</time>
      </trkpt>
      <trkpt lat="44.27504" lon="3.72705">
        <ele>695.17</ele>
        <time>2014-05-16T12:04:03Z</time>
      </trkpt>
      <trkpt lat="44.27489" lon="3.72769">
        <ele>696.61</ele>
        <time>2014-05-16T12:04:16Z</time>
      </trkpt>
      <trkpt lat="44.27483" lon="3.72835">
        <ele>696.61</ele>
        <time>2014-05-16T12:04:28Z</time>
      </trkpt>
      <trkpt lat="44.27476" lon="3.729">
        <ele>697.09</ele>
        <time>2014-05-16T12:04:39Z</time>
      </trkpt>
      <trkpt lat="44.27453" lon="3.72957">
        <ele>697.09</ele>
        <time>2014-05-16T12:04:50Z</time>
      </trkpt>
      <trkpt lat="44.27412" lon="3.72984">
        <ele>696.61</ele>
        <time>2014-05-16T12:05:01Z</time>
      </trkpt>
      <trkpt lat="44.27363" lon="3.72977">
        <ele>694.21</ele>
        <time>2014-05-16T12:05:12Z</time>
      </trkpt>
      <trkpt lat="44.2731" lon="3.72967">
        <ele>691.33</ele>
        <time>2014-05-16T12:05:18Z</time>
      </trkpt>
      <trkpt lat="44.27258" lon="3.7297">
        <ele>692.29</ele>
        <time>2014-05-16T12:05:25Z</time>
      </trkpt>
      <trkpt lat="44.27212" lon="3.72989">
        <ele>692.77</ele>
        <time>2014-05-16T12:05:33Z</time>
      </trkpt>
      <trkpt lat="44.27166" lon="3.73025">
        <ele>693.25</ele>
        <time>2014-05-16T12:05:42Z</time>
      </trkpt>
      <trkpt lat="44.2713" lon="3.73074">
        <ele>695.17</ele>
        <time>2014-05-16T12:06:24Z</time>
      </trkpt>
      <trkpt lat="44.27102" lon="3.73125">
        <ele>698.05</ele>
        <time>2014-05-16T12:06:51Z</time>
      </trkpt>
      <trkpt lat="44.27088" lon="3.73154">
        <ele>698.53</ele>
        <time>2014-05-16T12:09:41Z</time>
      </trkpt>
      <trkpt lat="44.27055" lon="3.73213">
        <ele>698.53</ele>
        <time>2014-05-16T12:10:13Z</time>
      </trkpt>
      <trkpt lat="44.27049" lon="3.73286">
        <ele>699.5</ele>
        <time>2014-05-16T12:10:35Z</time>
      </trkpt>
      <trkpt lat="44.2705" lon="3.73364">
        <ele>701.42</ele>
        <time>2014-05-16T12:10:56Z</time>
      </trkpt>
      <trkpt lat="44.27024" lon="3.73429">
        <ele>701.9</ele>
        <time>2014-05-16T12:11:15Z</time>
      </trkpt>
      <trkpt lat="44.2699" lon="3.73482">
        <ele>702.86</ele>
        <time>2014-05-16T12:11:33Z</time>
      </trkpt>
      <trkpt lat="44.26974" lon="3.73546">
        <ele>704.3</ele>
        <time>2014-05-16T12:11:52Z</time>
      </trkpt>
      <trkpt lat="44.26983" lon="3.73616">
        <ele>705.26</ele>
        <time>2014-05-16T12:12:09Z</time>
      </trkpt>
      <trkpt lat="44.26993" lon="3.73684">
        <ele>706.23</ele>
        <time>2014-05-16T12:12:26Z</time>
      </trkpt>
      <trkpt lat="44.26974" lon="3.73748">
        <ele>707.19</ele>
        <time>2014-05-16T12:12:43Z</time>
      </trkpt>
      <trkpt lat="44.26937" lon="3.73788">
        <ele>708.63</ele>
        <time>2014-05-16T12:12:59Z</time>
      </trkpt>
      <trkpt lat="44.26889" lon="3.73804">
        <ele>710.07</ele>
        <time>2014-05-16T12:13:14Z</time>
      </trkpt>
      <trkpt lat="44.2684" lon="3.73799">
        <ele>710.07</ele>
        <time>2014-05-16T12:13:29Z</time>
      </trkpt>
      <trkpt lat="44.26798" lon="3.73769">
        <ele>711.51</ele>
        <time>2014-05-16T12:13:43Z</time>
      </trkpt>
      <trkpt lat="44.26757" lon="3.73742">
        <ele>712.47</ele>
        <time>2014-05-16T12:13:57Z</time>
      </trkpt>
      <trkpt lat="44.26709" lon="3.73749">
        <ele>713.92</ele>
        <time>2014-05-16T12:14:12Z</time>
      </trkpt>
      <trkpt lat="44.26667" lon="3.73779">
        <ele>713.44</ele>
        <time>2014-05-16T12:14:24Z</time>
      </trkpt>
      <trkpt lat="44.26623" lon="3.738">
        <ele>713.92</ele>
        <time>2014-05-16T12:14:36Z</time>
      </trkpt>
      <trkpt lat="44.26579" lon="3.73815">
        <ele>713.92</ele>
        <time>2014-05-16T12:14:48Z</time>
      </trkpt>
      <trkpt lat="44.26544" lon="3.73861">
        <ele>713.92</ele>
        <time>2014-05-16T12:15:01Z</time>
      </trkpt>
      <trkpt lat="44.26519" lon="3.73919">
        <ele>713.44</ele>
        <time>2014-05-16T12:15:16Z</time>
      </trkpt>
      <trkpt lat="44.26483" lon="3.73908">
        <ele>714.4</ele>
        <time>2014-05-16T12:17:24Z</time>
      </trkpt>
      <trkpt lat="44.26467" lon="3.73852">
        <ele>711.51</ele>
        <time>2014-05-16T12:17:35Z</time>
      </trkpt>
      <trkpt lat="44.26468" lon="3.7379">
        <ele>707.67</ele>
        <time>2014-05-16T12:17:44Z</time>
      </trkpt>
      <trkpt lat="44.26458" lon="3.73727">
        <ele>705.26</ele>
        <time>2014-05-16T12:17:53Z</time>
      </trkpt>
      <trkpt lat="44.2641" lon="3.73727">
        <ele>711.03</ele>
        <time>2014-05-16T12:18:22Z</time>
      </trkpt>
      <trkpt lat="44.26428" lon="3.73685">
        <ele>719.2</ele>
        <time>2014-05-16T12:19:08Z</time>
      </trkpt>
      <trkpt lat="44.26474" lon="3.73649">
        <ele>724.49</ele>
        <time>2014-05-16T12:19:50Z</time>
      </trkpt>
      <trkpt lat="44.26528" lon="3.73657">
        <ele>728.34</ele>
        <time>2014-05-16T12:20:26Z</time>
      </trkpt>
      <trkpt lat="44.26573" lon="3.73646">
        <ele>730.26</ele>
        <time>2014-05-16T12:20:52Z</time>
      </trkpt>
      <trkpt lat="44.26609" lon="3.73597">
        <ele>734.1</ele>
        <time>2014-05-16T12:21:18Z</time>
      </trkpt>
      <trkpt lat="44.26649" lon="3.73565">
        <ele>736.99</ele>
        <time>2014-05-16T12:21:44Z</time>
      </trkpt>
      <trkpt lat="44.26701" lon="3.73565">
        <ele>739.39</ele>
        <time>2014-05-16T12:22:10Z</time>
      </trkpt>
      <trkpt lat="44.26713" lon="3.73555">
        <ele>738.43</ele>
        <time>2014-05-16T12:22:38Z</time>
      </trkpt>
      <trkpt lat="44.26718" lon="3.73549">
        <ele>741.79</ele>
        <time>2014-05-16T12:22:54Z</time>
      </trkpt>
      <trkpt lat="44.26664" lon="3.7355">
        <ele>746.6</ele>
        <time>2014-05-16T12:24:11Z</time>
      </trkpt>
      <trkpt lat="44.2661" lon="3.73541">
        <ele>751.89</ele>
        <time>2014-05-16T12:24:50Z</time>
      </trkpt>
      <trkpt lat="44.26553" lon="3.73577">
        <ele>756.69</ele>
        <time>2014-05-16T12:25:20Z</time>
      </trkpt>
      <trkpt lat="44.26542" lon="3.73552">
        <ele>763.9</ele>
        <time>2014-05-16T12:26:05Z</time>
      </trkpt>
      <trkpt lat="44.2659" lon="3.735">
        <ele>769.67</ele>
        <time>2014-05-16T12:26:47Z</time>
      </trkpt>
      <trkpt lat="44.26672" lon="3.73463">
        <ele>778.32</ele>
        <time>2014-05-16T12:27:46Z</time>
      </trkpt>
      <trkpt lat="44.26724" lon="3.73468">
        <ele>783.61</ele>
        <time>2014-05-16T12:28:22Z</time>
      </trkpt>
      <trkpt lat="44.26772" lon="3.73438">
        <ele>788.9</ele>
        <time>2014-05-16T12:29:00Z</time>
      </trkpt>
      <trkpt lat="44.26799" lon="3.73359">
        <ele>794.67</ele>
        <time>2014-05-16T12:29:44Z</time>
      </trkpt>
      <trkpt lat="44.26829" lon="3.73291">
        <ele>800.44</ele>
        <time>2014-05-16T12:30:22Z</time>
      </trkpt>
      <trkpt lat="44.26794" lon="3.73249">
        <ele>805.24</ele>
        <time>2014-05-16T12:33:04Z</time>
      </trkpt>
      <trkpt lat="44.26746" lon="3.73262">
        <ele>810.53</ele>
        <time>2014-05-16T12:33:40Z</time>
      </trkpt>
      <trkpt lat="44.26695" lon="3.73266">
        <ele>816.3</ele>
        <time>2014-05-16T12:34:19Z</time>
      </trkpt>
      <trkpt lat="44.26647" lon="3.73274">
        <ele>820.14</ele>
        <time>2014-05-16T12:34:50Z</time>
      </trkpt>
      <trkpt lat="44.26601" lon="3.73267">
        <ele>823.03</ele>
        <time>2014-05-16T12:35:15Z</time>
      </trkpt>
      <trkpt lat="44.26555" lon="3.73264">
        <ele>825.43</ele>
        <time>2014-05-16T12:35:39Z</time>
      </trkpt>
      <trkpt lat="44.26509" lon="3.73258">
        <ele>827.35</ele>
        <time>2014-05-16T12:36:02Z</time>
      </trkpt>
      <trkpt lat="44.26459" lon="3.73252">
        <ele>831.68</ele>
        <time>2014-05-16T12:36:29Z</time>
      </trkpt>
      <trkpt lat="44.26423" lon="3.73191">
        <ele>837.45</ele>
        <time>2014-05-16T12:37:04Z</time>
      </trkpt>
      <trkpt lat="44.26403" lon="3.73119">
        <ele>841.29</ele>
        <time>2014-05-16T12:37:35Z</time>
      </trkpt>
      <trkpt lat="44.26365" lon="3.73073">
        <ele>841.29</ele>
        <time>2014-05-16T12:37:54Z</time>
      </trkpt>
      <trkpt lat="44.26331" lon="3.73016">
        <ele>842.25</ele>
        <time>2014-05-16T12:38:09Z</time>
      </trkpt>
      <trkpt lat="44.26315" lon="3.72953">
        <ele>842.25</ele>
        <time>2014-05-16T12:38:25Z</time>
      </trkpt>
      <trkpt lat="44.26315" lon="3.7288">
        <ele>842.73</ele>
        <time>2014-05-16T12:38:40Z</time>
      </trkpt>
      <trkpt lat="44.26298" lon="3.72809">
        <ele>844.66</ele>
        <time>2014-05-16T12:39:00Z</time>
      </trkpt>
      <trkpt lat="44.26279" lon="3.72734">
        <ele>846.58</ele>
        <time>2014-05-16T12:39:19Z</time>
      </trkpt>
      <trkpt lat="44.26244" lon="3.72689">
        <ele>848.5</ele>
        <time>2014-05-16T12:39:39Z</time>
      </trkpt>
      <trkpt lat="44.26198" lon="3.72686">
        <ele>849.46</ele>
        <time>2014-05-16T12:39:54Z</time>
      </trkpt>
      <trkpt lat="44.26156" lon="3.72714">
        <ele>849.94</ele>
        <time>2014-05-16T12:40:09Z</time>
      </trkpt>
      <trkpt lat="44.26116" lon="3.72759">
        <ele>853.79</ele>
        <time>2014-05-16T12:40:31Z</time>
      </trkpt>
      <trkpt lat="44.2607" lon="3.72787">
        <ele>856.19</ele>
        <time>2014-05-16T12:40:58Z</time>
      </trkpt>
      <trkpt lat="44.26021" lon="3.72789">
        <ele>857.63</ele>
        <time>2014-05-16T12:41:18Z</time>
      </trkpt>
      <trkpt lat="44.25975" lon="3.72771">
        <ele>858.59</ele>
        <time>2014-05-16T12:41:37Z</time>
      </trkpt>
      <trkpt lat="44.25924" lon="3.72756">
        <ele>859.56</ele>
        <time>2014-05-16T12:41:53Z</time>
      </trkpt>
      <trkpt lat="44.25896" lon="3.72694">
        <ele>861.48</ele>
        <time>2014-05-16T12:42:11Z</time>
      </trkpt>
      <trkpt lat="44.25875" lon="3.72618">
        <ele>868.21</ele>
        <time>2014-05-16T12:42:45Z</time>
      </trkpt>
      <trkpt lat="44.25846" lon="3.72568">
        <ele>873.5</ele>
        <time>2014-05-16T12:43:21Z</time>
      </trkpt>
      <trkpt lat="44.25806" lon="3.72524">
        <ele>877.34</ele>
        <time>2014-05-16T12:43:50Z</time>
      </trkpt>
      <trkpt lat="44.25756" lon="3.72489">
        <ele>883.59</ele>
        <time>2014-05-16T12:44:27Z</time>
      </trkpt>
      <trkpt lat="44.2571" lon="3.7245">
        <ele>887.91</ele>
        <time>2014-05-16T12:45:00Z</time>
      </trkpt>
      <trkpt lat="44.25661" lon="3.72459">
        <ele>889.84</ele>
        <time>2014-05-16T12:45:20Z</time>
      </trkpt>
      <trkpt lat="44.25614" lon="3.72449">
        <ele>893.68</ele>
        <time>2014-05-16T12:45:47Z</time>
      </trkpt>
      <trkpt lat="44.25564" lon="3.72417">
        <ele>898.97</ele>
        <time>2014-05-16T12:46:23Z</time>
      </trkpt>
      <trkpt lat="44.25514" lon="3.72393">
        <ele>905.22</ele>
        <time>2014-05-16T12:46:58Z</time>
      </trkpt>
      <trkpt lat="44.25467" lon="3.72412">
        <ele>909.06</ele>
        <time>2014-05-16T12:47:27Z</time>
      </trkpt>
      <trkpt lat="44.25417" lon="3.72431">
        <ele>912.43</ele>
        <time>2014-05-16T12:47:54Z</time>
      </trkpt>
      <trkpt lat="44.25365" lon="3.72438">
        <ele>913.39</ele>
        <time>2014-05-16T12:48:11Z</time>
      </trkpt>
      <trkpt lat="44.25322" lon="3.72421">
        <ele>915.31</ele>
        <time>2014-05-16T12:48:28Z</time>
      </trkpt>
      <trkpt lat="44.2529" lon="3.72366">
        <ele>919.64</ele>
        <time>2014-05-16T12:48:51Z</time>
      </trkpt>
      <trkpt lat="44.25248" lon="3.72398">
        <ele>923.48</ele>
        <time>2014-05-16T12:49:17Z</time>
      </trkpt>
      <trkpt lat="44.25201" lon="3.72418">
        <ele>927.33</ele>
        <time>2014-05-16T12:49:47Z</time>
      </trkpt>
      <trkpt lat="44.25152" lon="3.72416">
        <ele>930.69</ele>
        <time>2014-05-16T12:50:16Z</time>
      </trkpt>
      <trkpt lat="44.25104" lon="3.72395">
        <ele>933.58</ele>
        <time>2014-05-16T12:50:42Z</time>
      </trkpt>
      <trkpt lat="44.25057" lon="3.72409">
        <ele>935.02</ele>
        <time>2014-05-16T12:50:59Z</time>
      </trkpt>
      <trkpt lat="44.25013" lon="3.72437">
        <ele>935.02</ele>
        <time>2014-05-16T12:51:15Z</time>
      </trkpt>
      <trkpt lat="44.24969" lon="3.72414">
        <ele>935.98</ele>
        <time>2014-05-16T12:51:29Z</time>
      </trkpt>
      <trkpt lat="44.24924" lon="3.72392">
        <ele>936.94</ele>
        <time>2014-05-16T12:51:41Z</time>
      </trkpt>
      <trkpt lat="44.24875" lon="3.72385">
        <ele>938.38</ele>
        <time>2014-05-16T12:51:54Z</time>
      </trkpt>
      <trkpt lat="44.24832" lon="3.72408">
        <ele>943.19</ele>
        <time>2014-05-16T12:52:14Z</time>
      </trkpt>
      <trkpt lat="44.24798" lon="3.72452">
        <ele>947.52</ele>
        <time>2014-05-16T12:52:39Z</time>
      </trkpt>
      <trkpt lat="44.24755" lon="3.72505">
        <ele>952.8</ele>
        <time>2014-05-16T12:53:10Z</time>
      </trkpt>
      <trkpt lat="44.24707" lon="3.72516">
        <ele>952.32</ele>
        <time>2014-05-16T12:53:30Z</time>
      </trkpt>
      <trkpt lat="44.24661" lon="3.72532">
        <ele>951.84</ele>
        <time>2014-05-16T12:53:41Z</time>
      </trkpt>
      <trkpt lat="44.24614" lon="3.72552">
        <ele>950.88</ele>
        <time>2014-05-16T12:53:51Z</time>
      </trkpt>
      <trkpt lat="44.24564" lon="3.72567">
        <ele>950.4</ele>
        <time>2014-05-16T12:53:59Z</time>
      </trkpt>
      <trkpt lat="44.24515" lon="3.72571">
        <ele>950.88</ele>
        <time>2014-05-16T12:54:07Z</time>
      </trkpt>
      <trkpt lat="44.24467" lon="3.72561">
        <ele>950.88</ele>
        <time>2014-05-16T12:54:15Z</time>
      </trkpt>
      <trkpt lat="44.24423" lon="3.72583">
        <ele>949.92</ele>
        <time>2014-05-16T12:57:27Z</time>
      </trkpt>
      <trkpt lat="44.24394" lon="3.72632">
        <ele>944.63</ele>
        <time>2014-05-16T12:57:38Z</time>
      </trkpt>
      <trkpt lat="44.2435" lon="3.72628">
        <ele>941.27</ele>
        <time>2014-05-16T12:57:47Z</time>
      </trkpt>
      <trkpt lat="44.24344" lon="3.72593">
        <ele>942.71</ele>
        <time>2014-05-16T12:58:31Z</time>
      </trkpt>
      <trkpt lat="44.24355" lon="3.72664">
        <ele>936.46</ele>
        <time>2014-05-16T12:58:47Z</time>
      </trkpt>
      <trkpt lat="44.24387" lon="3.7272">
        <ele>931.17</ele>
        <time>2014-05-16T12:58:55Z</time>
      </trkpt>
      <trkpt lat="44.24397" lon="3.72791">
        <ele>928.29</ele>
        <time>2014-05-16T12:59:02Z</time>
      </trkpt>
      <trkpt lat="44.24395" lon="3.7286">
        <ele>924.45</ele>
        <time>2014-05-16T12:59:08Z</time>
      </trkpt>
      <trkpt lat="44.2439" lon="3.72933">
        <ele>919.64</ele>
        <time>2014-05-16T12:59:14Z</time>
      </trkpt>
      <trkpt lat="44.2438" lon="3.73014">
        <ele>918.68</ele>
        <time>2014-05-16T12:59:19Z</time>
      </trkpt>
      <trkpt lat="44.24345" lon="3.73081">
        <ele>922.04</ele>
        <time>2014-05-16T12:59:26Z</time>
      </trkpt>
      <trkpt lat="44.24318" lon="3.73136">
        <ele>926.85</ele>
        <time>2014-05-16T12:59:38Z</time>
      </trkpt>
      <trkpt lat="44.24289" lon="3.73179">
        <ele>929.73</ele>
        <time>2014-05-16T12:59:56Z</time>
      </trkpt>
      <trkpt lat="44.24259" lon="3.73226">
        <ele>931.17</ele>
        <time>2014-05-16T13:00:18Z</time>
      </trkpt>
      <trkpt lat="44.24229" lon="3.73279">
        <ele>932.62</ele>
        <time>2014-05-16T13:00:37Z</time>
      </trkpt>
      <trkpt lat="44.24221" lon="3.73332">
        <ele>935.98</ele>
        <time>2014-05-16T13:03:35Z</time>
      </trkpt>
      <trkpt lat="44.2424" lon="3.73395">
        <ele>937.9</ele>
        <time>2014-05-16T13:04:00Z</time>
      </trkpt>
      <trkpt lat="44.24258" lon="3.73458">
        <ele>942.71</ele>
        <time>2014-05-16T13:04:26Z</time>
      </trkpt>
      <trkpt lat="44.24288" lon="3.73515">
        <ele>946.07</ele>
        <time>2014-05-16T13:04:52Z</time>
      </trkpt>
      <trkpt lat="44.24278" lon="3.73571">
        <ele>947.52</ele>
        <time>2014-05-16T13:05:13Z</time>
      </trkpt>
      <trkpt lat="44.24273" lon="3.73635">
        <ele>950.88</ele>
        <time>2014-05-16T13:05:37Z</time>
      </trkpt>
      <trkpt lat="44.24291" lon="3.73695">
        <ele>953.28</ele>
        <time>2014-05-16T13:05:59Z</time>
      </trkpt>
      <trkpt lat="44.24267" lon="3.73753">
        <ele>956.65</ele>
        <time>2014-05-16T13:06:23Z</time>
      </trkpt>
      <trkpt lat="44.24289" lon="3.73814">
        <ele>960.49</ele>
        <time>2014-05-16T13:06:48Z</time>
      </trkpt>
      <trkpt lat="44.24288" lon="3.73889">
        <ele>963.86</ele>
        <time>2014-05-16T13:07:10Z</time>
      </trkpt>
      <trkpt lat="44.24269" lon="3.73951">
        <ele>967.22</ele>
        <time>2014-05-16T13:07:34Z</time>
      </trkpt>
      <trkpt lat="44.24263" lon="3.74016">
        <ele>971.07</ele>
        <time>2014-05-16T13:07:59Z</time>
      </trkpt>
      <trkpt lat="44.24254" lon="3.74078">
        <ele>972.99</ele>
        <time>2014-05-16T13:08:22Z</time>
      </trkpt>
      <trkpt lat="44.2425" lon="3.74146">
        <ele>975.39</ele>
        <time>2014-05-16T13:08:43Z</time>
      </trkpt>
      <trkpt lat="44.24238" lon="3.74211">
        <ele>979.72</ele>
        <time>2014-05-16T13:09:04Z</time>
      </trkpt>
      <trkpt lat="44.24255" lon="3.74266">
        <ele>983.09</ele>
        <time>2014-05-16T13:09:29Z</time>
      </trkpt>
      <trkpt lat="44.24238" lon="3.74323">
        <ele>985.97</ele>
        <time>2014-05-16T13:09:54Z</time>
      </trkpt>
      <trkpt lat="44.24211" lon="3.74381">
        <ele>990.3</ele>
        <time>2014-05-16T13:10:22Z</time>
      </trkpt>
      <trkpt lat="44.24214" lon="3.74443">
        <ele>993.66</ele>
        <time>2014-05-16T13:10:47Z</time>
      </trkpt>
      <trkpt lat="44.24243" lon="3.74495">
        <ele>997.02</ele>
        <time>2014-05-16T13:11:11Z</time>
      </trkpt>
      <trkpt lat="44.24227" lon="3.74568">
        <ele>1001.35</ele>
        <time>2014-05-16T13:11:38Z</time>
      </trkpt>
      <trkpt lat="44.24213" lon="3.74639">
        <ele>1004.23</ele>
        <time>2014-05-16T13:12:02Z</time>
      </trkpt>
      <trkpt lat="44.24188" lon="3.74699">
        <ele>1007.6</ele>
        <time>2014-05-16T13:12:23Z</time>
      </trkpt>
      <trkpt lat="44.24178" lon="3.74761">
        <ele>1010.48</ele>
        <time>2014-05-16T13:12:45Z</time>
      </trkpt>
      <trkpt lat="44.24195" lon="3.74818">
        <ele>1011.93</ele>
        <time>2014-05-16T13:13:02Z</time>
      </trkpt>
      <trkpt lat="44.24238" lon="3.74855">
        <ele>1014.81</ele>
        <time>2014-05-16T13:13:26Z</time>
      </trkpt>
      <trkpt lat="44.24265" lon="3.74917">
        <ele>1012.41</ele>
        <time>2014-05-16T13:13:40Z</time>
      </trkpt>
      <trkpt lat="44.24262" lon="3.74974">
        <ele>1011.93</ele>
        <time>2014-05-16T13:20:46Z</time>
      </trkpt>
      <trkpt lat="44.24277" lon="3.75044">
        <ele>1009.04</ele>
        <time>2014-05-16T13:21:01Z</time>
      </trkpt>
      <trkpt lat="44.24279" lon="3.75112">
        <ele>1009.04</ele>
        <time>2014-05-16T13:21:13Z</time>
      </trkpt>
      <trkpt lat="44.24282" lon="3.75179">
        <ele>1009.04</ele>
        <time>2014-05-16T13:21:23Z</time>
      </trkpt>
      <trkpt lat="44.24257" lon="3.75235">
        <ele>1007.12</ele>
        <time>2014-05-16T13:21:32Z</time>
      </trkpt>
      <trkpt lat="44.2422" lon="3.75287">
        <ele>1004.72</ele>
        <time>2014-05-16T13:21:39Z</time>
      </trkpt>
      <trkpt lat="44.24176" lon="3.75331">
        <ele>1001.83</ele>
        <time>2014-05-16T13:21:45Z</time>
      </trkpt>
      <trkpt lat="44.24135" lon="3.75369">
        <ele>998.47</ele>
        <time>2014-05-16T13:21:50Z</time>
      </trkpt>
      <trkpt lat="44.24105" lon="3.75417">
        <ele>996.54</ele>
        <time>2014-05-16T13:21:56Z</time>
      </trkpt>
      <trkpt lat="44.2408" lon="3.75474">
        <ele>993.18</ele>
        <time>2014-05-16T13:22:02Z</time>
      </trkpt>
      <trkpt lat="44.24032" lon="3.75508">
        <ele>992.7</ele>
        <time>2014-05-16T13:22:08Z</time>
      </trkpt>
      <trkpt lat="44.2398" lon="3.75511">
        <ele>990.78</ele>
        <time>2014-05-16T13:22:14Z</time>
      </trkpt>
      <trkpt lat="44.23928" lon="3.75521">
        <ele>989.81</ele>
        <time>2014-05-16T13:22:20Z</time>
      </trkpt>
      <trkpt lat="44.23879" lon="3.75527">
        <ele>987.89</ele>
        <time>2014-05-16T13:22:26Z</time>
      </trkpt>
      <trkpt lat="44.2383" lon="3.75539">
        <ele>985.97</ele>
        <time>2014-05-16T13:22:32Z</time>
      </trkpt>
      <trkpt lat="44.23782" lon="3.75553">
        <ele>984.05</ele>
        <time>2014-05-16T13:22:38Z</time>
      </trkpt>
      <trkpt lat="44.23734" lon="3.75567">
        <ele>982.12</ele>
        <time>2014-05-16T13:22:44Z</time>
      </trkpt>
      <trkpt lat="44.23689" lon="3.7559">
        <ele>980.68</ele>
        <time>2014-05-16T13:22:50Z</time>
      </trkpt>
      <trkpt lat="44.23643" lon="3.75609">
        <ele>980.68</ele>
        <time>2014-05-16T13:22:57Z</time>
      </trkpt>
      <trkpt lat="44.23596" lon="3.75613">
        <ele>979.24</ele>
        <time>2014-05-16T13:23:03Z</time>
      </trkpt>
      <trkpt lat="44.23549" lon="3.75633">
        <ele>976.36</ele>
        <time>2014-05-16T13:23:09Z</time>
      </trkpt>
      <trkpt lat="44.23511" lon="3.75682">
        <ele>972.99</ele>
        <time>2014-05-16T13:23:15Z</time>
      </trkpt>
      <trkpt lat="44.23484" lon="3.75738">
        <ele>970.59</ele>
        <time>2014-05-16T13:23:20Z</time>
      </trkpt>
      <trkpt lat="44.23471" lon="3.75811">
        <ele>970.11</ele>
        <time>2014-05-16T13:23:26Z</time>
      </trkpt>
      <trkpt lat="44.23464" lon="3.7588">
        <ele>968.18</ele>
        <time>2014-05-16T13:23:32Z</time>
      </trkpt>
      <trkpt lat="44.23458" lon="3.75938">
        <ele>968.67</ele>
        <time>2014-05-16T13:23:39Z</time>
      </trkpt>
      <trkpt lat="44.23416" lon="3.7596">
        <ele>970.11</ele>
        <time>2014-05-16T13:23:46Z</time>
      </trkpt>
      <trkpt lat="44.23391" lon="3.76012">
        <ele>969.15</ele>
        <time>2014-05-16T13:23:54Z</time>
      </trkpt>
      <trkpt lat="44.23386" lon="3.76074">
        <ele>969.15</ele>
        <time>2014-05-16T13:24:02Z</time>
      </trkpt>
      <trkpt lat="44.23389" lon="3.76134">
        <ele>970.11</ele>
        <time>2014-05-16T13:24:10Z</time>
      </trkpt>
      <trkpt lat="44.23399" lon="3.76197">
        <ele>968.18</ele>
        <time>2014-05-16T13:24:17Z</time>
      </trkpt>
      <trkpt lat="44.23409" lon="3.76261">
        <ele>962.9</ele>
        <time>2014-05-16T13:24:23Z</time>
      </trkpt>
      <trkpt lat="44.23422" lon="3.76324">
        <ele>957.13</ele>
        <time>2014-05-16T13:24:29Z</time>
      </trkpt>
      <trkpt lat="44.23452" lon="3.76373">
        <ele>953.77</ele>
        <time>2014-05-16T13:24:35Z</time>
      </trkpt>
      <trkpt lat="44.23474" lon="3.76437">
        <ele>949.92</ele>
        <time>2014-05-16T13:24:41Z</time>
      </trkpt>
      <trkpt lat="44.23494" lon="3.76502">
        <ele>946.07</ele>
        <time>2014-05-16T13:24:47Z</time>
      </trkpt>
      <trkpt lat="44.23504" lon="3.76564">
        <ele>944.15</ele>
        <time>2014-05-16T13:24:54Z</time>
      </trkpt>
      <trkpt lat="44.23544" lon="3.76596">
        <ele>940.31</ele>
        <time>2014-05-16T13:25:03Z</time>
      </trkpt>
      <trkpt lat="44.23529" lon="3.76619">
        <ele>932.62</ele>
        <time>2014-05-16T13:25:20Z</time>
      </trkpt>
      <trkpt lat="44.23574" lon="3.76645">
        <ele>928.77</ele>
        <time>2014-05-16T13:25:48Z</time>
      </trkpt>
      <trkpt lat="44.23611" lon="3.76686">
        <ele>927.33</ele>
        <time>2014-05-16T13:25:59Z</time>
      </trkpt>
      <trkpt lat="44.23605" lon="3.76755">
        <ele>923.96</ele>
        <time>2014-05-16T13:26:07Z</time>
      </trkpt>
      <trkpt lat="44.2359" lon="3.76821">
        <ele>921.56</ele>
        <time>2014-05-16T13:26:13Z</time>
      </trkpt>
      <trkpt lat="44.23582" lon="3.76888">
        <ele>919.16</ele>
        <time>2014-05-16T13:26:19Z</time>
      </trkpt>
      <trkpt lat="44.23587" lon="3.76962">
        <ele>915.79</ele>
        <time>2014-05-16T13:26:25Z</time>
      </trkpt>
      <trkpt lat="44.236" lon="3.77032">
        <ele>911.47</ele>
        <time>2014-05-16T13:26:31Z</time>
      </trkpt>
      <trkpt lat="44.23618" lon="3.77098">
        <ele>908.58</ele>
        <time>2014-05-16T13:26:37Z</time>
      </trkpt>
      <trkpt lat="44.2363" lon="3.77167">
        <ele>904.74</ele>
        <time>2014-05-16T13:26:43Z</time>
      </trkpt>
      <trkpt lat="44.23625" lon="3.77213">
        <ele>898.49</ele>
        <time>2014-05-16T13:26:57Z</time>
      </trkpt>
      <trkpt lat="44.2362" lon="3.77248">
        <ele>897.53</ele>
        <time>2014-05-16T13:36:46Z</time>
      </trkpt>
      <trkpt lat="44.23644" lon="3.77303">
        <ele>894.64</ele>
        <time>2014-05-16T13:36:57Z</time>
      </trkpt>
      <trkpt lat="44.23626" lon="3.77349">
        <ele>893.68</ele>
        <time>2014-05-16T13:37:08Z</time>
      </trkpt>
      <trkpt lat="44.23575" lon="3.77348">
        <ele>893.68</ele>
        <time>2014-05-16T13:37:18Z</time>
      </trkpt>
      <trkpt lat="44.23528" lon="3.77353">
        <ele>891.76</ele>
        <time>2014-05-16T13:37:27Z</time>
      </trkpt>
      <trkpt lat="44.23486" lon="3.77385">
        <ele>889.84</ele>
        <time>2014-05-16T13:37:35Z</time>
      </trkpt>
      <trkpt lat="44.23461" lon="3.77439">
        <ele>888.88</ele>
        <time>2014-05-16T13:37:43Z</time>
      </trkpt>
      <trkpt lat="44.23432" lon="3.77493">
        <ele>889.84</ele>
        <time>2014-05-16T13:37:55Z</time>
      </trkpt>
      <trkpt lat="44.23408" lon="3.77558">
        <ele>889.36</ele>
        <time>2014-05-16T13:38:06Z</time>
      </trkpt>
      <trkpt lat="44.23372" lon="3.77611">
        <ele>886.95</ele>
        <time>2014-05-16T13:38:17Z</time>
      </trkpt>
      <trkpt lat="44.23335" lon="3.77667">
        <ele>889.36</ele>
        <time>2014-05-16T13:38:30Z</time>
      </trkpt>
      <trkpt lat="44.23291" lon="3.77706">
        <ele>890.8</ele>
        <time>2014-05-16T13:38:48Z</time>
      </trkpt>
      <trkpt lat="44.23227" lon="3.77744">
        <ele>892.72</ele>
        <time>2014-05-16T13:39:15Z</time>
      </trkpt>
      <trkpt lat="44.23236" lon="3.77711">
        <ele>892.72</ele>
        <time>2014-05-16T13:45:00Z</time>
      </trkpt>
      <trkpt lat="44.23275" lon="3.77669">
        <ele>889.84</ele>
        <time>2014-05-16T13:45:10Z</time>
      </trkpt>
      <trkpt lat="44.23315" lon="3.77629">
        <ele>887.43</ele>
        <time>2014-05-16T13:45:18Z</time>
      </trkpt>
      <trkpt lat="44.23354" lon="3.77585">
        <ele>886.47</ele>
        <time>2014-05-16T13:45:25Z</time>
      </trkpt>
      <trkpt lat="44.23394" lon="3.77546">
        <ele>885.99</ele>
        <time>2014-05-16T13:45:35Z</time>
      </trkpt>
      <trkpt lat="44.23424" lon="3.77492">
        <ele>887.43</ele>
        <time>2014-05-16T13:45:49Z</time>
      </trkpt>
      <trkpt lat="44.23458" lon="3.77441">
        <ele>886.95</ele>
        <time>2014-05-16T13:47:11Z</time>
      </trkpt>
      <trkpt lat="44.23425" lon="3.77502">
        <ele>886.95</ele>
        <time>2014-05-16T13:47:31Z</time>
      </trkpt>
      <trkpt lat="44.23393" lon="3.77557">
        <ele>885.99</ele>
        <time>2014-05-16T13:47:41Z</time>
      </trkpt>
      <trkpt lat="44.23349" lon="3.77602">
        <ele>885.51</ele>
        <time>2014-05-16T13:47:51Z</time>
      </trkpt>
      <trkpt lat="44.23316" lon="3.7765">
        <ele>887.91</ele>
        <time>2014-05-16T13:48:03Z</time>
      </trkpt>
      <trkpt lat="44.23277" lon="3.77698">
        <ele>890.8</ele>
        <time>2014-05-16T13:48:20Z</time>
      </trkpt>
      <trkpt lat="44.23227" lon="3.77739">
        <ele>894.16</ele>
        <time>2014-05-16T13:48:46Z</time>
      </trkpt>
      <trkpt lat="44.23216" lon="3.77804">
        <ele>887.43</ele>
        <time>2014-05-16T13:50:02Z</time>
      </trkpt>
      <trkpt lat="44.23193" lon="3.77861">
        <ele>882.15</ele>
        <time>2014-05-16T13:50:11Z</time>
      </trkpt>
      <trkpt lat="44.23162" lon="3.7792">
        <ele>879.26</ele>
        <time>2014-05-16T13:50:19Z</time>
      </trkpt>
      <trkpt lat="44.23134" lon="3.77977">
        <ele>878.78</ele>
        <time>2014-05-16T13:50:27Z</time>
      </trkpt>
      <trkpt lat="44.23113" lon="3.78039">
        <ele>877.82</ele>
        <time>2014-05-16T13:50:36Z</time>
      </trkpt>
      <trkpt lat="44.231" lon="3.78098">
        <ele>877.34</ele>
        <time>2014-05-16T13:50:44Z</time>
      </trkpt>
      <trkpt lat="44.23089" lon="3.78159">
        <ele>875.42</ele>
        <time>2014-05-16T13:50:53Z</time>
      </trkpt>
      <trkpt lat="44.23067" lon="3.78223">
        <ele>871.57</ele>
        <time>2014-05-16T13:51:01Z</time>
      </trkpt>
      <trkpt lat="44.23043" lon="3.78281">
        <ele>868.21</ele>
        <time>2014-05-16T13:51:07Z</time>
      </trkpt>
      <trkpt lat="44.23018" lon="3.78343">
        <ele>864.36</ele>
        <time>2014-05-16T13:51:13Z</time>
      </trkpt>
      <trkpt lat="44.22995" lon="3.78404">
        <ele>861.48</ele>
        <time>2014-05-16T13:51:19Z</time>
      </trkpt>
      <trkpt lat="44.2295" lon="3.78443">
        <ele>857.63</ele>
        <time>2014-05-16T13:51:25Z</time>
      </trkpt>
      <trkpt lat="44.22904" lon="3.78453">
        <ele>852.83</ele>
        <time>2014-05-16T13:51:31Z</time>
      </trkpt>
      <trkpt lat="44.22857" lon="3.78473">
        <ele>849.46</ele>
        <time>2014-05-16T13:51:37Z</time>
      </trkpt>
      <trkpt lat="44.22816" lon="3.78513">
        <ele>846.58</ele>
        <time>2014-05-16T13:51:43Z</time>
      </trkpt>
      <trkpt lat="44.22779" lon="3.78546">
        <ele>841.77</ele>
        <time>2014-05-16T13:51:48Z</time>
      </trkpt>
      <trkpt lat="44.22732" lon="3.78582">
        <ele>839.37</ele>
        <time>2014-05-16T13:51:53Z</time>
      </trkpt>
      <trkpt lat="44.22696" lon="3.78616">
        <ele>837.93</ele>
        <time>2014-05-16T13:51:58Z</time>
      </trkpt>
      <trkpt lat="44.22662" lon="3.78666">
        <ele>836.48</ele>
        <time>2014-05-16T13:52:05Z</time>
      </trkpt>
      <trkpt lat="44.2263" lon="3.7872">
        <ele>833.12</ele>
        <time>2014-05-16T13:52:11Z</time>
      </trkpt>
      <trkpt lat="44.22616" lon="3.78784">
        <ele>830.72</ele>
        <time>2014-05-16T13:52:17Z</time>
      </trkpt>
      <trkpt lat="44.226" lon="3.7885">
        <ele>828.79</ele>
        <time>2014-05-16T13:52:23Z</time>
      </trkpt>
      <trkpt lat="44.22583" lon="3.78917">
        <ele>826.87</ele>
        <time>2014-05-16T13:52:28Z</time>
      </trkpt>
      <trkpt lat="44.22565" lon="3.78982">
        <ele>827.83</ele>
        <time>2014-05-16T13:52:34Z</time>
      </trkpt>
      <trkpt lat="44.2252" lon="3.79013">
        <ele>824.47</ele>
        <time>2014-05-16T13:52:41Z</time>
      </trkpt>
      <trkpt lat="44.22503" lon="3.79071">
        <ele>823.03</ele>
        <time>2014-05-16T13:52:46Z</time>
      </trkpt>
      <trkpt lat="44.22489" lon="3.79132">
        <ele>820.14</ele>
        <time>2014-05-16T13:52:51Z</time>
      </trkpt>
      <trkpt lat="44.22465" lon="3.79188">
        <ele>816.3</ele>
        <time>2014-05-16T13:52:56Z</time>
      </trkpt>
      <trkpt lat="44.22436" lon="3.79242">
        <ele>813.41</ele>
        <time>2014-05-16T13:53:01Z</time>
      </trkpt>
      <trkpt lat="44.2241" lon="3.79297">
        <ele>811.49</ele>
        <time>2014-05-16T13:53:06Z</time>
      </trkpt>
      <trkpt lat="44.22405" lon="3.79359">
        <ele>809.09</ele>
        <time>2014-05-16T13:53:12Z</time>
      </trkpt>
      <trkpt lat="44.22433" lon="3.79424">
        <ele>807.64</ele>
        <time>2014-05-16T13:53:18Z</time>
      </trkpt>
      <trkpt lat="44.22463" lon="3.79483">
        <ele>805.24</ele>
        <time>2014-05-16T13:53:24Z</time>
      </trkpt>
      <trkpt lat="44.22473" lon="3.79549">
        <ele>803.8</ele>
        <time>2014-05-16T13:53:30Z</time>
      </trkpt>
      <trkpt lat="44.22475" lon="3.79619">
        <ele>799.47</ele>
        <time>2014-05-16T13:53:36Z</time>
      </trkpt>
      <trkpt lat="44.22481" lon="3.79675">
        <ele>796.11</ele>
        <time>2014-05-16T13:53:45Z</time>
      </trkpt>
      <trkpt lat="44.22501" lon="3.79611">
        <ele>791.78</ele>
        <time>2014-05-16T13:54:11Z</time>
      </trkpt>
      <trkpt lat="44.22521" lon="3.79668">
        <ele>784.09</ele>
        <time>2014-05-16T13:54:27Z</time>
      </trkpt>
      <trkpt lat="44.22536" lon="3.79753">
        <ele>778.32</ele>
        <time>2014-05-16T13:54:36Z</time>
      </trkpt>
      <trkpt lat="44.22535" lon="3.79824">
        <ele>774.48</ele>
        <time>2014-05-16T13:54:44Z</time>
      </trkpt>
      <trkpt lat="44.22497" lon="3.79878">
        <ele>765.35</ele>
        <time>2014-05-16T13:54:56Z</time>
      </trkpt>
      <trkpt lat="44.22514" lon="3.79957">
        <ele>756.69</ele>
        <time>2014-05-16T13:55:06Z</time>
      </trkpt>
      <trkpt lat="44.2249" lon="3.8002">
        <ele>750.93</ele>
        <time>2014-05-16T13:55:15Z</time>
      </trkpt>
      <trkpt lat="44.22449" lon="3.8002">
        <ele>749</ele>
        <time>2014-05-16T13:55:30Z</time>
      </trkpt>
      <trkpt lat="44.22408" lon="3.79997">
        <ele>749.49</ele>
        <time>2014-05-16T13:55:51Z</time>
      </trkpt>
      <trkpt lat="44.22378" lon="3.79977">
        <ele>749.49</ele>
        <time>2014-05-16T13:57:04Z</time>
      </trkpt>
      <trkpt lat="44.22417" lon="3.80007">
        <ele>751.41</ele>
        <time>2014-05-16T14:04:44Z</time>
      </trkpt>
      <trkpt lat="44.22465" lon="3.80045">
        <ele>750.93</ele>
        <time>2014-05-16T14:05:05Z</time>
      </trkpt>
      <trkpt lat="44.22489" lon="3.80098">
        <ele>745.16</ele>
        <time>2014-05-16T14:05:24Z</time>
      </trkpt>
      <trkpt lat="44.22461" lon="3.80127">
        <ele>740.35</ele>
        <time>2014-05-16T14:05:45Z</time>
      </trkpt>
      <trkpt lat="44.2248" lon="3.80119">
        <ele>739.87</ele>
        <time>2014-05-16T14:07:46Z</time>
      </trkpt>
      <trkpt lat="44.22474" lon="3.80106">
        <ele>738.91</ele>
        <time>2014-05-16T14:09:50Z</time>
      </trkpt>
    </trkseg>
  </trk>
</gpx>